<?xml version='1.0' encoding='UTF-8'?><gpx version="1.1" creator="JPX - https://github.com/jenetics/jpx" xmlns="http://www.topografix.com/GPX/1/1"><trk><trkseg><trkpt lat="43.7033639" lon="11.1889869"><ele>222.0</ele><time>2026-04-27T15:04:17.74Z</time></trkpt><trkpt lat="43.7033262" lon="11.1888965"><ele>222.0</ele><time>2026-04-27T15:04:22.741Z</time></trkpt><trkpt lat="43.7033718" lon="11.1888321"><ele>222.0</ele><time>2026-04-27T15:05:20.668Z</time></trkpt><trkpt lat="43.703433" lon="11.1887294"><ele>222.0</ele><time>2026-04-27T15:05:21.737Z</time></trkpt><trkpt lat="43.7034868" lon="11.1886099"><ele>222.0</ele><time>2026-04-27T15:05:22.744Z</time></trkpt><trkpt lat="43.703539" lon="11.1884974"><ele>222.0</ele><time>2026-04-27T15:05:23.739Z</time></trkpt><trkpt lat="43.7035931" lon="11.1883764"><ele>223.57142857142856</ele><time>2026-04-27T15:05:24.738Z</time></trkpt><trkpt lat="43.7036395" lon="11.1882757"><ele>225.14285714285717</ele><time>2026-04-27T15:05:25.742Z</time></trkpt><trkpt lat="43.7036804" lon="11.1881956"><ele>226.71428571428572</ele><time>2026-04-27T15:05:26.738Z</time></trkpt><trkpt lat="43.7037218" lon="11.1881227"><ele>228.28571428571428</ele><time>2026-04-27T15:05:27.738Z</time></trkpt><trkpt lat="43.7037656" lon="11.1880401"><ele>229.85714285714283</ele><time>2026-04-27T15:05:28.744Z</time></trkpt><trkpt lat="43.7038365" lon="11.1880625"><ele>231.42857142857144</ele><time>2026-04-27T15:05:29.74Z</time></trkpt><trkpt lat="43.7038995" lon="11.188061"><ele>233.0</ele><time>2026-04-27T15:05:30.738Z</time></trkpt><trkpt lat="43.7040345" lon="11.1880125"><ele>233.4</ele><time>2026-04-27T15:05:32.737Z</time></trkpt><trkpt lat="43.704084" lon="11.1878525"><ele>233.8</ele><time>2026-04-27T15:05:34.744Z</time></trkpt><trkpt lat="43.7041274" lon="11.187758"><ele>234.2</ele><time>2026-04-27T15:05:35.738Z</time></trkpt><trkpt lat="43.7041145" lon="11.1876151"><ele>234.6</ele><time>2026-04-27T15:05:36.735Z</time></trkpt><trkpt lat="43.704137" lon="11.1875112"><ele>235.0</ele><time>2026-04-27T15:05:37.739Z</time></trkpt><trkpt lat="43.7041477" lon="11.1874141"><ele>235.2</ele><time>2026-04-27T15:05:38.737Z</time></trkpt><trkpt lat="43.7041421" lon="11.1872464"><ele>235.4</ele><time>2026-04-27T15:05:40.745Z</time></trkpt><trkpt lat="43.7041398" lon="11.1871492"><ele>235.60000000000002</ele><time>2026-04-27T15:05:41.737Z</time></trkpt><trkpt lat="43.7041641" lon="11.1870182"><ele>235.8</ele><time>2026-04-27T15:05:43.74Z</time></trkpt><trkpt lat="43.704177" lon="11.1868961"><ele>236.0</ele><time>2026-04-27T15:05:45.739Z</time></trkpt><trkpt lat="43.7041474" lon="11.1867487"><ele>236.00000000000003</ele><time>2026-04-27T15:05:47.753Z</time></trkpt><trkpt lat="43.7041311" lon="11.1866405"><ele>236.0</ele><time>2026-04-27T15:05:48.74Z</time></trkpt><trkpt lat="43.7041056" lon="11.1865269"><ele>236.0</ele><time>2026-04-27T15:05:49.738Z</time></trkpt><trkpt lat="43.7040849" lon="11.1864262"><ele>236.0</ele><time>2026-04-27T15:05:50.735Z</time></trkpt><trkpt lat="43.7040545" lon="11.1863447"><ele>236.00000000000003</ele><time>2026-04-27T15:05:51.74Z</time></trkpt><trkpt lat="43.7040427" lon="11.1862471"><ele>236.0</ele><time>2026-04-27T15:05:52.738Z</time></trkpt><trkpt lat="43.7040216" lon="11.1861182"><ele>235.66666666666669</ele><time>2026-04-27T15:05:53.737Z</time></trkpt><trkpt lat="43.7039919" lon="11.1860008"><ele>235.33333333333334</ele><time>2026-04-27T15:05:54.735Z</time></trkpt><trkpt lat="43.7039715" lon="11.1858892"><ele>235.0</ele><time>2026-04-27T15:05:55.741Z</time></trkpt><trkpt lat="43.7039591" lon="11.1857867"><ele>234.66666666666669</ele><time>2026-04-27T15:05:56.735Z</time></trkpt><trkpt lat="43.7039508" lon="11.1856862"><ele>234.33333333333334</ele><time>2026-04-27T15:05:58.741Z</time></trkpt><trkpt lat="43.704054" lon="11.1856266"><ele>234.0</ele><time>2026-04-27T15:06:02.737Z</time></trkpt><trkpt lat="43.704142" lon="11.1856422"><ele>234.0</ele><time>2026-04-27T15:06:03.736Z</time></trkpt><trkpt lat="43.7042189" lon="11.1856597"><ele>234.0</ele><time>2026-04-27T15:06:04.74Z</time></trkpt><trkpt lat="43.7042983" lon="11.1857012"><ele>234.0</ele><time>2026-04-27T15:06:05.737Z</time></trkpt><trkpt lat="43.7043636" lon="11.1856959"><ele>234.0</ele><time>2026-04-27T15:06:06.74Z</time></trkpt><trkpt lat="43.7044512" lon="11.1857253"><ele>234.0</ele><time>2026-04-27T15:06:07.738Z</time></trkpt><trkpt lat="43.7045212" lon="11.1857509"><ele>234.0</ele><time>2026-04-27T15:06:08.737Z</time></trkpt><trkpt lat="43.7046132" lon="11.1857754"><ele>233.66666666666666</ele><time>2026-04-27T15:06:09.739Z</time></trkpt><trkpt lat="43.7047115" lon="11.1857933"><ele>233.33333333333331</ele><time>2026-04-27T15:06:10.735Z</time></trkpt><trkpt lat="43.7047962" lon="11.1858086"><ele>233.0</ele><time>2026-04-27T15:06:11.737Z</time></trkpt><trkpt lat="43.7048494" lon="11.1858595"><ele>232.66666666666666</ele><time>2026-04-27T15:06:12.736Z</time></trkpt><trkpt lat="43.7049388" lon="11.1858946"><ele>232.33333333333331</ele><time>2026-04-27T15:06:13.738Z</time></trkpt><trkpt lat="43.7050264" lon="11.1858913"><ele>232.0</ele><time>2026-04-27T15:06:16.742Z</time></trkpt><trkpt lat="43.7051697" lon="11.1860227"><ele>232.5</ele><time>2026-04-27T15:06:18.738Z</time></trkpt><trkpt lat="43.7052553" lon="11.1860815"><ele>233.0</ele><time>2026-04-27T15:06:19.739Z</time></trkpt><trkpt lat="43.7053707" lon="11.1861369"><ele>233.5</ele><time>2026-04-27T15:06:20.736Z</time></trkpt><trkpt lat="43.7054534" lon="11.1861875"><ele>234.0</ele><time>2026-04-27T15:06:21.738Z</time></trkpt><trkpt lat="43.7056202" lon="11.1862497"><ele>234.0</ele><time>2026-04-27T15:06:22.74Z</time></trkpt><trkpt lat="43.7057419" lon="11.1862974"><ele>234.0</ele><time>2026-04-27T15:06:23.736Z</time></trkpt><trkpt lat="43.7058783" lon="11.1863476"><ele>234.0</ele><time>2026-04-27T15:06:24.742Z</time></trkpt><trkpt lat="43.7060088" lon="11.1863429"><ele>234.0</ele><time>2026-04-27T15:06:25.736Z</time></trkpt><trkpt lat="43.7061079" lon="11.1863827"><ele>233.39999999999998</ele><time>2026-04-27T15:06:26.735Z</time></trkpt><trkpt lat="43.7061913" lon="11.186388"><ele>232.79999999999998</ele><time>2026-04-27T15:06:27.735Z</time></trkpt><trkpt lat="43.7062913" lon="11.1863928"><ele>232.20000000000002</ele><time>2026-04-27T15:06:28.737Z</time></trkpt><trkpt lat="43.706372" lon="11.1863783"><ele>231.60000000000002</ele><time>2026-04-27T15:06:29.735Z</time></trkpt><trkpt lat="43.7064807" lon="11.186332"><ele>231.0</ele><time>2026-04-27T15:06:31.739Z</time></trkpt><trkpt lat="43.7065457" lon="11.1862639"><ele>231.0</ele><time>2026-04-27T15:06:32.737Z</time></trkpt><trkpt lat="43.706589" lon="11.1861869"><ele>231.0</ele><time>2026-04-27T15:06:33.738Z</time></trkpt><trkpt lat="43.7066429" lon="11.186105"><ele>231.0</ele><time>2026-04-27T15:06:34.737Z</time></trkpt><trkpt lat="43.7066995" lon="11.1860097"><ele>231.0</ele><time>2026-04-27T15:06:35.736Z</time></trkpt><trkpt lat="43.7067885" lon="11.1859201"><ele>231.0</ele><time>2026-04-27T15:06:37.743Z</time></trkpt><trkpt lat="43.7068686" lon="11.1859282"><ele>231.0</ele><time>2026-04-27T15:06:38.737Z</time></trkpt><trkpt lat="43.7069537" lon="11.1859246"><ele>229.75</ele><time>2026-04-27T15:06:39.743Z</time></trkpt><trkpt lat="43.7070811" lon="11.1859814"><ele>228.5</ele><time>2026-04-27T15:06:40.743Z</time></trkpt><trkpt lat="43.7072053" lon="11.1860239"><ele>227.25</ele><time>2026-04-27T15:06:41.738Z</time></trkpt><trkpt lat="43.7073075" lon="11.1860466"><ele>226.0</ele><time>2026-04-27T15:06:42.74Z</time></trkpt><trkpt lat="43.707417" lon="11.1860589"><ele>226.0</ele><time>2026-04-27T15:06:43.739Z</time></trkpt><trkpt lat="43.707496" lon="11.1861256"><ele>226.0</ele><time>2026-04-27T15:06:44.74Z</time></trkpt><trkpt lat="43.707633" lon="11.1862009"><ele>226.0</ele><time>2026-04-27T15:06:45.738Z</time></trkpt><trkpt lat="43.7077341" lon="11.1862539"><ele>226.0</ele><time>2026-04-27T15:06:46.74Z</time></trkpt><trkpt lat="43.707845" lon="11.1862508"><ele>224.99999999999997</ele><time>2026-04-27T15:06:47.736Z</time></trkpt><trkpt lat="43.707918" lon="11.1862683"><ele>224.0</ele><time>2026-04-27T15:06:48.742Z</time></trkpt><trkpt lat="43.7079895" lon="11.1862916"><ele>223.0</ele><time>2026-04-27T15:06:49.746Z</time></trkpt><trkpt lat="43.7080903" lon="11.1862998"><ele>222.0</ele><time>2026-04-27T15:06:51.736Z</time></trkpt><trkpt lat="43.7080811" lon="11.1861679"><ele>220.99999999999997</ele><time>2026-04-27T15:06:53.739Z</time></trkpt><trkpt lat="43.7080862" lon="11.1860622"><ele>220.0</ele><time>2026-04-27T15:06:55.738Z</time></trkpt><trkpt lat="43.7080419" lon="11.1859335"><ele>219.99999999999997</ele><time>2026-04-27T15:06:56.736Z</time></trkpt><trkpt lat="43.7079931" lon="11.1858172"><ele>220.0</ele><time>2026-04-27T15:06:57.738Z</time></trkpt><trkpt lat="43.7079668" lon="11.1857248"><ele>220.0</ele><time>2026-04-27T15:06:58.739Z</time></trkpt><trkpt lat="43.7079344" lon="11.1856252"><ele>220.0</ele><time>2026-04-27T15:06:59.738Z</time></trkpt><trkpt lat="43.7079046" lon="11.185484"><ele>219.99999999999997</ele><time>2026-04-27T15:07:00.735Z</time></trkpt><trkpt lat="43.7078751" lon="11.1853789"><ele>220.0</ele><time>2026-04-27T15:07:01.737Z</time></trkpt><trkpt lat="43.7078598" lon="11.1852754"><ele>221.4</ele><time>2026-04-27T15:07:03.741Z</time></trkpt><trkpt lat="43.7078802" lon="11.1851736"><ele>222.8</ele><time>2026-04-27T15:07:15.744Z</time></trkpt><trkpt lat="43.7078906" lon="11.1849753"><ele>224.2</ele><time>2026-04-27T15:07:17.744Z</time></trkpt><trkpt lat="43.7078867" lon="11.1848697"><ele>225.6</ele><time>2026-04-27T15:07:18.74Z</time></trkpt><trkpt lat="43.7078897" lon="11.1847722"><ele>227.0</ele><time>2026-04-27T15:07:19.737Z</time></trkpt><trkpt lat="43.7078694" lon="11.1846542"><ele>227.33333333333334</ele><time>2026-04-27T15:07:20.74Z</time></trkpt><trkpt lat="43.7078538" lon="11.1845582"><ele>227.66666666666669</ele><time>2026-04-27T15:07:21.741Z</time></trkpt><trkpt lat="43.7078411" lon="11.1844693"><ele>228.0</ele><time>2026-04-27T15:07:22.738Z</time></trkpt><trkpt lat="43.7078405" lon="11.1843004"><ele>228.33333333333331</ele><time>2026-04-27T15:07:24.737Z</time></trkpt><trkpt lat="43.7078382" lon="11.1841909"><ele>228.66666666666666</ele><time>2026-04-27T15:07:27.737Z</time></trkpt><trkpt lat="43.7079172" lon="11.1841899"><ele>229.0</ele><time>2026-04-27T15:07:34.74Z</time></trkpt><trkpt lat="43.707977" lon="11.1841384"><ele>228.99999999999997</ele><time>2026-04-27T15:07:40.74Z</time></trkpt><trkpt lat="43.7079919" lon="11.1840141"><ele>229.0</ele><time>2026-04-27T15:07:43.739Z</time></trkpt><trkpt lat="43.7079945" lon="11.1839182"><ele>229.0</ele><time>2026-04-27T15:07:45.741Z</time></trkpt><trkpt lat="43.7080192" lon="11.183827"><ele>229.0</ele><time>2026-04-27T15:07:58.737Z</time></trkpt><trkpt lat="43.7079772" lon="11.1837286"><ele>228.99999999999997</ele><time>2026-04-27T15:08:14.739Z</time></trkpt><trkpt lat="43.708014" lon="11.1836284"><ele>229.0</ele><time>2026-04-27T15:08:18.74Z</time></trkpt><trkpt lat="43.7080749" lon="11.1835891"><ele>229.5</ele><time>2026-04-27T15:08:20.736Z</time></trkpt><trkpt lat="43.7081544" lon="11.183508"><ele>230.0</ele><time>2026-04-27T15:08:22.739Z</time></trkpt><trkpt lat="43.7082389" lon="11.1834009"><ele>230.5</ele><time>2026-04-27T15:08:24.74Z</time></trkpt><trkpt lat="43.7083446" lon="11.1833467"><ele>231.0</ele><time>2026-04-27T15:08:26.74Z</time></trkpt><trkpt lat="43.708462" lon="11.1832839"><ele>231.0</ele><time>2026-04-27T15:08:28.741Z</time></trkpt><trkpt lat="43.7085243" lon="11.1832618"><ele>231.00000000000003</ele><time>2026-04-27T15:08:29.739Z</time></trkpt><trkpt lat="43.7086334" lon="11.1831829"><ele>231.00000000000003</ele><time>2026-04-27T15:08:31.742Z</time></trkpt><trkpt lat="43.7086939" lon="11.183145"><ele>231.0</ele><time>2026-04-27T15:08:32.736Z</time></trkpt><trkpt lat="43.7087877" lon="11.1830834"><ele>231.0</ele><time>2026-04-27T15:08:34.738Z</time></trkpt><trkpt lat="43.7088747" lon="11.1830239"><ele>229.5</ele><time>2026-04-27T15:08:36.742Z</time></trkpt><trkpt lat="43.7089472" lon="11.182971"><ele>228.0</ele><time>2026-04-27T15:08:38.741Z</time></trkpt><trkpt lat="43.7090001" lon="11.1828856"><ele>226.5</ele><time>2026-04-27T15:08:42.741Z</time></trkpt><trkpt lat="43.7090399" lon="11.1828141"><ele>225.0</ele><time>2026-04-27T15:08:54.737Z</time></trkpt><trkpt lat="43.7090662" lon="11.1826204"><ele>223.5</ele><time>2026-04-27T15:10:26.736Z</time></trkpt><trkpt lat="43.7091325" lon="11.1825911"><ele>222.0</ele><time>2026-04-27T15:10:30.738Z</time></trkpt><trkpt lat="43.7092148" lon="11.1826109"><ele>222.0</ele><time>2026-04-27T15:10:33.739Z</time></trkpt><trkpt lat="43.7093059" lon="11.1825757"><ele>222.0</ele><time>2026-04-27T15:10:36.737Z</time></trkpt><trkpt lat="43.709357" lon="11.1824994"><ele>222.0</ele><time>2026-04-27T15:10:39.74Z</time></trkpt><trkpt lat="43.7094025" lon="11.1824074"><ele>222.0</ele><time>2026-04-27T15:10:41.736Z</time></trkpt><trkpt lat="43.7094523" lon="11.1823432"><ele>222.0</ele><time>2026-04-27T15:10:43.737Z</time></trkpt><trkpt lat="43.7095073" lon="11.1822719"><ele>222.0</ele><time>2026-04-27T15:10:46.737Z</time></trkpt><trkpt lat="43.7095655" lon="11.1822282"><ele>220.66666666666666</ele><time>2026-04-27T15:10:49.736Z</time></trkpt><trkpt lat="43.7096359" lon="11.1822621"><ele>219.33333333333331</ele><time>2026-04-27T15:10:52.744Z</time></trkpt><trkpt lat="43.7097467" lon="11.1822896"><ele>218.0</ele><time>2026-04-27T15:10:55.737Z</time></trkpt><trkpt lat="43.7097962" lon="11.1822045"><ele>216.66666666666666</ele><time>2026-04-27T15:10:58.737Z</time></trkpt><trkpt lat="43.7098575" lon="11.1821172"><ele>215.33333333333331</ele><time>2026-04-27T15:11:01.741Z</time></trkpt><trkpt lat="43.7099215" lon="11.1820595"><ele>214.0</ele><time>2026-04-27T15:11:03.74Z</time></trkpt><trkpt lat="43.7099811" lon="11.1820096"><ele>213.99999999999997</ele><time>2026-04-27T15:11:05.737Z</time></trkpt><trkpt lat="43.7100452" lon="11.1819773"><ele>214.0</ele><time>2026-04-27T15:11:09.736Z</time></trkpt><trkpt lat="43.7100926" lon="11.1820457"><ele>214.0</ele><time>2026-04-27T15:11:13.736Z</time></trkpt><trkpt lat="43.7101555" lon="11.1820829"><ele>214.0</ele><time>2026-04-27T15:11:16.735Z</time></trkpt><trkpt lat="43.7100816" lon="11.1821258"><ele>213.99999999999997</ele><time>2026-04-27T15:14:34.735Z</time></trkpt><trkpt lat="43.7100159" lon="11.1821714"><ele>214.0</ele><time>2026-04-27T15:14:36.735Z</time></trkpt><trkpt lat="43.7099233" lon="11.1822269"><ele>213.99999999999997</ele><time>2026-04-27T15:14:38.739Z</time></trkpt><trkpt lat="43.709844" lon="11.1822518"><ele>214.0</ele><time>2026-04-27T15:14:41.742Z</time></trkpt><trkpt lat="43.7097863" lon="11.1823101"><ele>214.0</ele><time>2026-04-27T15:14:43.746Z</time></trkpt><trkpt lat="43.7096971" lon="11.1823251"><ele>214.0</ele><time>2026-04-27T15:14:46.735Z</time></trkpt><trkpt lat="43.7096179" lon="11.1822707"><ele>213.99999999999997</ele><time>2026-04-27T15:14:49.737Z</time></trkpt><trkpt lat="43.7095473" lon="11.1822092"><ele>214.0</ele><time>2026-04-27T15:14:51.738Z</time></trkpt><trkpt lat="43.7094817" lon="11.1821467"><ele>213.99999999999997</ele><time>2026-04-27T15:14:54.741Z</time></trkpt><trkpt lat="43.7094268" lon="11.1820471"><ele>214.0</ele><time>2026-04-27T15:14:57.741Z</time></trkpt><trkpt lat="43.7093803" lon="11.1819542"><ele>214.0</ele><time>2026-04-27T15:14:59.738Z</time></trkpt><trkpt lat="43.7093361" lon="11.1818841"><ele>214.0</ele><time>2026-04-27T15:15:01.736Z</time></trkpt><trkpt lat="43.7092849" lon="11.1818261"><ele>213.99999999999997</ele><time>2026-04-27T15:15:04.753Z</time></trkpt><trkpt lat="43.7092" lon="11.1817925"><ele>214.0</ele><time>2026-04-27T15:15:07.739Z</time></trkpt><trkpt lat="43.7091168" lon="11.1818052"><ele>215.66666666666666</ele><time>2026-04-27T15:15:10.738Z</time></trkpt><trkpt lat="43.7090518" lon="11.1817644"><ele>217.33333333333331</ele><time>2026-04-27T15:15:12.738Z</time></trkpt><trkpt lat="43.7089487" lon="11.1817397"><ele>219.0</ele><time>2026-04-27T15:15:14.738Z</time></trkpt><trkpt lat="43.7088733" lon="11.1816896"><ele>220.66666666666669</ele><time>2026-04-27T15:15:16.743Z</time></trkpt><trkpt lat="43.7087955" lon="11.1816379"><ele>222.33333333333334</ele><time>2026-04-27T15:15:18.74Z</time></trkpt><trkpt lat="43.7087165" lon="11.1815809"><ele>224.0</ele><time>2026-04-27T15:15:20.743Z</time></trkpt><trkpt lat="43.7086125" lon="11.1815357"><ele>225.83333333333334</ele><time>2026-04-27T15:15:22.736Z</time></trkpt><trkpt lat="43.7085436" lon="11.1815423"><ele>227.66666666666669</ele><time>2026-04-27T15:15:23.74Z</time></trkpt><trkpt lat="43.7084687" lon="11.1815013"><ele>229.5</ele><time>2026-04-27T15:15:25.737Z</time></trkpt><trkpt lat="43.7083782" lon="11.181488"><ele>231.33333333333331</ele><time>2026-04-27T15:15:27.739Z</time></trkpt><trkpt lat="43.7082962" lon="11.1814626"><ele>233.16666666666666</ele><time>2026-04-27T15:15:29.735Z</time></trkpt><trkpt lat="43.7082206" lon="11.1814484"><ele>235.0</ele><time>2026-04-27T15:15:32.737Z</time></trkpt><trkpt lat="43.708148" lon="11.1814254"><ele>235.42857142857142</ele><time>2026-04-27T15:15:34.739Z</time></trkpt><trkpt lat="43.7080823" lon="11.18142"><ele>235.85714285714283</ele><time>2026-04-27T15:15:36.738Z</time></trkpt><trkpt lat="43.7079894" lon="11.1814103"><ele>236.28571428571428</ele><time>2026-04-27T15:15:39.747Z</time></trkpt><trkpt lat="43.7079296" lon="11.1813591"><ele>236.71428571428572</ele><time>2026-04-27T15:15:42.737Z</time></trkpt><trkpt lat="43.7078614" lon="11.1813619"><ele>237.14285714285714</ele><time>2026-04-27T15:15:45.739Z</time></trkpt><trkpt lat="43.7077858" lon="11.1813703"><ele>237.57142857142856</ele><time>2026-04-27T15:15:49.739Z</time></trkpt><trkpt lat="43.7077378" lon="11.1812941"><ele>238.0</ele><time>2026-04-27T15:15:52.739Z</time></trkpt><trkpt lat="43.7076699" lon="11.1812215"><ele>239.66666666666666</ele><time>2026-04-27T15:15:55.74Z</time></trkpt><trkpt lat="43.7076181" lon="11.1811507"><ele>241.33333333333331</ele><time>2026-04-27T15:15:57.737Z</time></trkpt><trkpt lat="43.7075236" lon="11.1811355"><ele>243.0</ele><time>2026-04-27T15:15:59.737Z</time></trkpt><trkpt lat="43.7074329" lon="11.1811385"><ele>244.66666666666669</ele><time>2026-04-27T15:16:01.736Z</time></trkpt><trkpt lat="43.7073505" lon="11.1811123"><ele>246.33333333333334</ele><time>2026-04-27T15:16:03.736Z</time></trkpt><trkpt lat="43.7072655" lon="11.1810891"><ele>248.0</ele><time>2026-04-27T15:16:05.738Z</time></trkpt><trkpt lat="43.707197" lon="11.1810715"><ele>248.00000000000003</ele><time>2026-04-27T15:16:07.741Z</time></trkpt><trkpt lat="43.7071213" lon="11.1810592"><ele>248.0</ele><time>2026-04-27T15:16:09.735Z</time></trkpt><trkpt lat="43.7070424" lon="11.1810157"><ele>248.0</ele><time>2026-04-27T15:16:11.737Z</time></trkpt><trkpt lat="43.7069755" lon="11.1809303"><ele>248.0</ele><time>2026-04-27T15:16:13.736Z</time></trkpt><trkpt lat="43.7069357" lon="11.1808529"><ele>248.00000000000003</ele><time>2026-04-27T15:16:14.736Z</time></trkpt><trkpt lat="43.7069052" lon="11.1807023"><ele>248.0</ele><time>2026-04-27T15:16:16.737Z</time></trkpt><trkpt lat="43.7069218" lon="11.180557"><ele>249.16666666666669</ele><time>2026-04-27T15:16:18.737Z</time></trkpt><trkpt lat="43.7069319" lon="11.1804652"><ele>250.33333333333334</ele><time>2026-04-27T15:16:19.75Z</time></trkpt><trkpt lat="43.7069504" lon="11.1802814"><ele>251.5</ele><time>2026-04-27T15:16:21.736Z</time></trkpt><trkpt lat="43.7069318" lon="11.1801921"><ele>252.66666666666669</ele><time>2026-04-27T15:16:22.736Z</time></trkpt><trkpt lat="43.7069543" lon="11.18009"><ele>253.83333333333334</ele><time>2026-04-27T15:16:23.734Z</time></trkpt><trkpt lat="43.706987" lon="11.1799989"><ele>255.0</ele><time>2026-04-27T15:16:24.739Z</time></trkpt><trkpt lat="43.7070078" lon="11.1799002"><ele>256.8333333333333</ele><time>2026-04-27T15:16:25.739Z</time></trkpt><trkpt lat="43.7070461" lon="11.1798219"><ele>258.6666666666667</ele><time>2026-04-27T15:16:26.746Z</time></trkpt><trkpt lat="43.7070965" lon="11.1797242"><ele>260.5</ele><time>2026-04-27T15:16:27.736Z</time></trkpt><trkpt lat="43.707134" lon="11.1796498"><ele>262.33333333333337</ele><time>2026-04-27T15:16:28.741Z</time></trkpt><trkpt lat="43.7072162" lon="11.1795508"><ele>264.1666666666667</ele><time>2026-04-27T15:16:30.736Z</time></trkpt><trkpt lat="43.7072565" lon="11.1794291"><ele>266.0</ele><time>2026-04-27T15:16:32.736Z</time></trkpt><trkpt lat="43.7072775" lon="11.1793464"><ele>266.0</ele><time>2026-04-27T15:16:34.74Z</time></trkpt><trkpt lat="43.7072538" lon="11.1792432"><ele>266.0</ele><time>2026-04-27T15:16:37.735Z</time></trkpt><trkpt lat="43.7073086" lon="11.179182"><ele>266.0</ele><time>2026-04-27T15:16:46.739Z</time></trkpt><trkpt lat="43.7073942" lon="11.1790368"><ele>266.0</ele><time>2026-04-27T15:17:02.738Z</time></trkpt><trkpt lat="43.7074705" lon="11.1789988"><ele>266.0</ele><time>2026-04-27T15:17:05.74Z</time></trkpt><trkpt lat="43.7075403" lon="11.1789342"><ele>266.0</ele><time>2026-04-27T15:17:07.735Z</time></trkpt><trkpt lat="43.7075524" lon="11.1788016"><ele>266.57142857142856</ele><time>2026-04-27T15:17:12.737Z</time></trkpt><trkpt lat="43.7075273" lon="11.1786911"><ele>267.1428571428571</ele><time>2026-04-27T15:17:14.74Z</time></trkpt><trkpt lat="43.7075249" lon="11.1785988"><ele>267.7142857142857</ele><time>2026-04-27T15:17:15.741Z</time></trkpt><trkpt lat="43.7074944" lon="11.1785191"><ele>268.2857142857143</ele><time>2026-04-27T15:17:16.737Z</time></trkpt><trkpt lat="43.7074606" lon="11.1784136"><ele>268.85714285714283</ele><time>2026-04-27T15:17:18.738Z</time></trkpt><trkpt lat="43.7074761" lon="11.1783219"><ele>269.42857142857144</ele><time>2026-04-27T15:17:20.736Z</time></trkpt><trkpt lat="43.7074846" lon="11.1782255"><ele>270.0</ele><time>2026-04-27T15:17:22.738Z</time></trkpt><trkpt lat="43.7074677" lon="11.178127"><ele>270.0</ele><time>2026-04-27T15:17:24.738Z</time></trkpt><trkpt lat="43.7074907" lon="11.1780388"><ele>270.0</ele><time>2026-04-27T15:17:26.734Z</time></trkpt><trkpt lat="43.7075383" lon="11.1779405"><ele>270.0</ele><time>2026-04-27T15:17:29.735Z</time></trkpt><trkpt lat="43.7075624" lon="11.1778515"><ele>270.0</ele><time>2026-04-27T15:17:31.735Z</time></trkpt><trkpt lat="43.7075949" lon="11.1777539"><ele>270.0</ele><time>2026-04-27T15:17:34.735Z</time></trkpt><trkpt lat="43.7076281" lon="11.1776319"><ele>270.0</ele><time>2026-04-27T15:17:37.74Z</time></trkpt><trkpt lat="43.7076198" lon="11.1775278"><ele>270.0</ele><time>2026-04-27T15:17:39.736Z</time></trkpt><trkpt lat="43.7076448" lon="11.1773971"><ele>270.0</ele><time>2026-04-27T15:17:41.737Z</time></trkpt><trkpt lat="43.7077462" lon="11.1773247"><ele>270.0</ele><time>2026-04-27T15:17:46.735Z</time></trkpt><trkpt lat="43.7077832" lon="11.1772195"><ele>270.0</ele><time>2026-04-27T15:17:50.736Z</time></trkpt><trkpt lat="43.7078448" lon="11.1771343"><ele>270.0</ele><time>2026-04-27T15:17:53.739Z</time></trkpt><trkpt lat="43.7078928" lon="11.1770072"><ele>269.8</ele><time>2026-04-27T15:17:56.736Z</time></trkpt><trkpt lat="43.7079001" lon="11.1769187"><ele>269.6</ele><time>2026-04-27T15:17:58.74Z</time></trkpt><trkpt lat="43.7079357" lon="11.1768285"><ele>269.4</ele><time>2026-04-27T15:18:00.737Z</time></trkpt><trkpt lat="43.7080012" lon="11.1767373"><ele>269.2</ele><time>2026-04-27T15:18:02.74Z</time></trkpt><trkpt lat="43.7080865" lon="11.1765938"><ele>269.0</ele><time>2026-04-27T15:18:04.738Z</time></trkpt><trkpt lat="43.7081625" lon="11.1765229"><ele>269.8</ele><time>2026-04-27T15:18:06.74Z</time></trkpt><trkpt lat="43.7081769" lon="11.1763901"><ele>270.59999999999997</ele><time>2026-04-27T15:18:09.736Z</time></trkpt><trkpt lat="43.7082104" lon="11.1762891"><ele>271.4</ele><time>2026-04-27T15:18:11.739Z</time></trkpt><trkpt lat="43.7082658" lon="11.1762151"><ele>272.2</ele><time>2026-04-27T15:18:13.736Z</time></trkpt><trkpt lat="43.7083643" lon="11.1761526"><ele>273.0</ele><time>2026-04-27T15:18:15.739Z</time></trkpt><trkpt lat="43.708446" lon="11.1760498"><ele>273.0</ele><time>2026-04-27T15:18:17.748Z</time></trkpt><trkpt lat="43.7085049" lon="11.1759251"><ele>273.0</ele><time>2026-04-27T15:18:19.737Z</time></trkpt><trkpt lat="43.7085249" lon="11.1758406"><ele>273.0</ele><time>2026-04-27T15:18:20.746Z</time></trkpt><trkpt lat="43.7085916" lon="11.1757927"><ele>273.0</ele><time>2026-04-27T15:18:22.736Z</time></trkpt><trkpt lat="43.7085974" lon="11.1756735"><ele>273.0</ele><time>2026-04-27T15:18:24.735Z</time></trkpt><trkpt lat="43.7086314" lon="11.1755538"><ele>273.0</ele><time>2026-04-27T15:18:26.735Z</time></trkpt><trkpt lat="43.7086097" lon="11.1754696"><ele>273.2</ele><time>2026-04-27T15:18:27.734Z</time></trkpt><trkpt lat="43.7086407" lon="11.1753296"><ele>273.4</ele><time>2026-04-27T15:18:29.736Z</time></trkpt><trkpt lat="43.7086085" lon="11.1752488"><ele>273.59999999999997</ele><time>2026-04-27T15:18:30.734Z</time></trkpt><trkpt lat="43.7086585" lon="11.1751325"><ele>273.8</ele><time>2026-04-27T15:18:32.736Z</time></trkpt><trkpt lat="43.7086429" lon="11.1750164"><ele>274.0</ele><time>2026-04-27T15:18:34.736Z</time></trkpt><trkpt lat="43.7087191" lon="11.1749212"><ele>275.0</ele><time>2026-04-27T15:18:36.737Z</time></trkpt><trkpt lat="43.7087829" lon="11.1748156"><ele>276.0</ele><time>2026-04-27T15:18:38.735Z</time></trkpt><trkpt lat="43.7088025" lon="11.1747008"><ele>277.0</ele><time>2026-04-27T15:18:41.735Z</time></trkpt><trkpt lat="43.7087888" lon="11.1745498"><ele>278.0</ele><time>2026-04-27T15:18:44.739Z</time></trkpt><trkpt lat="43.7087731" lon="11.17444"><ele>279.0</ele><time>2026-04-27T15:18:45.735Z</time></trkpt><trkpt lat="43.7088025" lon="11.1743035"><ele>279.0</ele><time>2026-04-27T15:18:46.739Z</time></trkpt><trkpt lat="43.7088357" lon="11.1741795"><ele>279.0</ele><time>2026-04-27T15:18:48.737Z</time></trkpt><trkpt lat="43.7088897" lon="11.1740527"><ele>279.0</ele><time>2026-04-27T15:18:50.733Z</time></trkpt><trkpt lat="43.708911" lon="11.1738748"><ele>279.0</ele><time>2026-04-27T15:18:52.739Z</time></trkpt><trkpt lat="43.7089375" lon="11.1737223"><ele>279.0</ele><time>2026-04-27T15:18:54.735Z</time></trkpt><trkpt lat="43.7089568" lon="11.1735943"><ele>280.59999999999997</ele><time>2026-04-27T15:18:56.735Z</time></trkpt><trkpt lat="43.708976" lon="11.1734763"><ele>282.2</ele><time>2026-04-27T15:18:58.735Z</time></trkpt><trkpt lat="43.7090096" lon="11.1733663"><ele>283.79999999999995</ele><time>2026-04-27T15:19:00.739Z</time></trkpt><trkpt lat="43.7090768" lon="11.1733804"><ele>285.4</ele><time>2026-04-27T15:19:02.736Z</time></trkpt><trkpt lat="43.7092325" lon="11.1732696"><ele>287.0</ele><time>2026-04-27T15:19:05.734Z</time></trkpt><trkpt lat="43.7093109" lon="11.1731916"><ele>286.4</ele><time>2026-04-27T15:19:08.735Z</time></trkpt><trkpt lat="43.7094154" lon="11.1731573"><ele>285.79999999999995</ele><time>2026-04-27T15:19:10.736Z</time></trkpt><trkpt lat="43.7095182" lon="11.1730799"><ele>285.2</ele><time>2026-04-27T15:19:12.74Z</time></trkpt><trkpt lat="43.7095775" lon="11.1730353"><ele>284.59999999999997</ele><time>2026-04-27T15:19:15.737Z</time></trkpt><trkpt lat="43.7096303" lon="11.1729372"><ele>284.0</ele><time>2026-04-27T15:19:18.74Z</time></trkpt><trkpt lat="43.709611" lon="11.1728438"><ele>284.0</ele><time>2026-04-27T15:19:22.737Z</time></trkpt><trkpt lat="43.709656" lon="11.1727404"><ele>284.0</ele><time>2026-04-27T15:19:25.742Z</time></trkpt><trkpt lat="43.7096711" lon="11.1726262"><ele>284.0</ele><time>2026-04-27T15:19:28.739Z</time></trkpt><trkpt lat="43.7096679" lon="11.172457"><ele>284.0</ele><time>2026-04-27T15:19:30.735Z</time></trkpt><trkpt lat="43.7096929" lon="11.1722877"><ele>284.0</ele><time>2026-04-27T15:19:32.74Z</time></trkpt><trkpt lat="43.7097077" lon="11.1721119"><ele>285.0</ele><time>2026-04-27T15:19:34.735Z</time></trkpt><trkpt lat="43.7097765" lon="11.1720383"><ele>286.0</ele><time>2026-04-27T15:19:36.737Z</time></trkpt><trkpt lat="43.7097405" lon="11.171963"><ele>287.0</ele><time>2026-04-27T15:19:38.735Z</time></trkpt><trkpt lat="43.7097665" lon="11.1718414"><ele>288.0</ele><time>2026-04-27T15:19:41.737Z</time></trkpt><trkpt lat="43.7098462" lon="11.1717818"><ele>289.0</ele><time>2026-04-27T15:19:44.736Z</time></trkpt><trkpt lat="43.7098681" lon="11.1716503"><ele>290.0</ele><time>2026-04-27T15:19:46.737Z</time></trkpt><trkpt lat="43.7099106" lon="11.1715628"><ele>290.75</ele><time>2026-04-27T15:19:49.735Z</time></trkpt><trkpt lat="43.7099872" lon="11.1715116"><ele>291.5</ele><time>2026-04-27T15:19:52.736Z</time></trkpt><trkpt lat="43.7102375" lon="11.1714651"><ele>292.25</ele><time>2026-04-27T15:19:56.735Z</time></trkpt><trkpt lat="43.7103033" lon="11.1713786"><ele>293.0</ele><time>2026-04-27T15:19:58.736Z</time></trkpt><trkpt lat="43.7103978" lon="11.1713565"><ele>292.0</ele><time>2026-04-27T15:20:00.734Z</time></trkpt><trkpt lat="43.7104816" lon="11.1713886"><ele>291.0</ele><time>2026-04-27T15:20:03.736Z</time></trkpt><trkpt lat="43.7105476" lon="11.1713941"><ele>290.0</ele><time>2026-04-27T15:20:05.732Z</time></trkpt><trkpt lat="43.7106186" lon="11.1713149"><ele>289.0</ele><time>2026-04-27T15:20:07.734Z</time></trkpt><trkpt lat="43.7106757" lon="11.1712396"><ele>288.0</ele><time>2026-04-27T15:20:10.734Z</time></trkpt><trkpt lat="43.7106865" lon="11.1711422"><ele>287.0</ele><time>2026-04-27T15:20:13.739Z</time></trkpt><trkpt lat="43.7106518" lon="11.1710638"><ele>287.0</ele><time>2026-04-27T15:20:15.737Z</time></trkpt><trkpt lat="43.7106194" lon="11.1709239"><ele>287.0</ele><time>2026-04-27T15:20:17.734Z</time></trkpt><trkpt lat="43.7105911" lon="11.1708417"><ele>287.0</ele><time>2026-04-27T15:20:18.736Z</time></trkpt><trkpt lat="43.7105137" lon="11.1706913"><ele>287.0</ele><time>2026-04-27T15:20:20.736Z</time></trkpt><trkpt lat="43.7104676" lon="11.1706117"><ele>287.0</ele><time>2026-04-27T15:20:22.737Z</time></trkpt><trkpt lat="43.7104014" lon="11.170553"><ele>288.0</ele><time>2026-04-27T15:20:26.737Z</time></trkpt><trkpt lat="43.7103549" lon="11.1704796"><ele>289.0</ele><time>2026-04-27T15:20:30.734Z</time></trkpt><trkpt lat="43.7103142" lon="11.170388"><ele>290.0</ele><time>2026-04-27T15:20:33.737Z</time></trkpt><trkpt lat="43.7102725" lon="11.170261"><ele>291.0</ele><time>2026-04-27T15:20:35.735Z</time></trkpt><trkpt lat="43.7102316" lon="11.1700796"><ele>292.0</ele><time>2026-04-27T15:20:37.738Z</time></trkpt><trkpt lat="43.7102113" lon="11.1699845"><ele>292.0</ele><time>2026-04-27T15:20:43.736Z</time></trkpt><trkpt lat="43.7102232" lon="11.1698705"><ele>292.0</ele><time>2026-04-27T15:20:46.738Z</time></trkpt><trkpt lat="43.7102277" lon="11.1697793"><ele>292.0</ele><time>2026-04-27T15:20:48.734Z</time></trkpt><trkpt lat="43.7102273" lon="11.1696845"><ele>292.0</ele><time>2026-04-27T15:20:51.735Z</time></trkpt><trkpt lat="43.7101671" lon="11.1696378"><ele>292.0</ele><time>2026-04-27T15:20:56.734Z</time></trkpt><trkpt lat="43.7101081" lon="11.1696034"><ele>292.0</ele><time>2026-04-27T15:20:58.737Z</time></trkpt><trkpt lat="43.71001" lon="11.1695793"><ele>291.3333333333333</ele><time>2026-04-27T15:21:00.737Z</time></trkpt><trkpt lat="43.7099467" lon="11.1695865"><ele>290.66666666666663</ele><time>2026-04-27T15:21:01.734Z</time></trkpt><trkpt lat="43.7098765" lon="11.1695964"><ele>290.0</ele><time>2026-04-27T15:21:02.735Z</time></trkpt><trkpt lat="43.7098119" lon="11.1696227"><ele>289.3333333333333</ele><time>2026-04-27T15:21:04.734Z</time></trkpt><trkpt lat="43.7097233" lon="11.1696372"><ele>288.6666666666667</ele><time>2026-04-27T15:21:08.735Z</time></trkpt><trkpt lat="43.7095917" lon="11.169651"><ele>288.0</ele><time>2026-04-27T15:21:10.736Z</time></trkpt><trkpt lat="43.7095175" lon="11.1696878"><ele>288.0</ele><time>2026-04-27T15:21:11.736Z</time></trkpt><trkpt lat="43.7094328" lon="11.1697071"><ele>288.0</ele><time>2026-04-27T15:21:12.739Z</time></trkpt><trkpt lat="43.7093501" lon="11.169786"><ele>288.0</ele><time>2026-04-27T15:21:14.739Z</time></trkpt><trkpt lat="43.7093122" lon="11.169867"><ele>288.0</ele><time>2026-04-27T15:21:16.737Z</time></trkpt><trkpt lat="43.7092477" lon="11.1699022"><ele>288.0</ele><time>2026-04-27T15:21:18.735Z</time></trkpt><trkpt lat="43.7091823" lon="11.1699468"><ele>288.0</ele><time>2026-04-27T15:21:19.738Z</time></trkpt><trkpt lat="43.7091336" lon="11.1700023"><ele>287.8</ele><time>2026-04-27T15:21:20.739Z</time></trkpt><trkpt lat="43.7090489" lon="11.17005"><ele>287.6</ele><time>2026-04-27T15:21:22.737Z</time></trkpt><trkpt lat="43.7089351" lon="11.17009"><ele>287.4</ele><time>2026-04-27T15:21:24.739Z</time></trkpt><trkpt lat="43.708864" lon="11.1701174"><ele>287.2</ele><time>2026-04-27T15:21:25.736Z</time></trkpt><trkpt lat="43.7087819" lon="11.1701495"><ele>287.0</ele><time>2026-04-27T15:21:26.736Z</time></trkpt><trkpt lat="43.7087016" lon="11.170194"><ele>287.0</ele><time>2026-04-27T15:21:27.737Z</time></trkpt><trkpt lat="43.7086088" lon="11.1702331"><ele>287.0</ele><time>2026-04-27T15:21:28.736Z</time></trkpt><trkpt lat="43.7085397" lon="11.1702516"><ele>287.0</ele><time>2026-04-27T15:21:29.739Z</time></trkpt><trkpt lat="43.7084659" lon="11.1702766"><ele>287.0</ele><time>2026-04-27T15:21:30.734Z</time></trkpt><trkpt lat="43.7083831" lon="11.1703006"><ele>287.0</ele><time>2026-04-27T15:21:31.739Z</time></trkpt><trkpt lat="43.7082777" lon="11.1703247"><ele>287.0</ele><time>2026-04-27T15:21:33.738Z</time></trkpt><trkpt lat="43.7082251" lon="11.1702565"><ele>286.1666666666667</ele><time>2026-04-27T15:21:36.738Z</time></trkpt><trkpt lat="43.7081638" lon="11.1701995"><ele>285.33333333333337</ele><time>2026-04-27T15:21:38.736Z</time></trkpt><trkpt lat="43.7081522" lon="11.1701134"><ele>284.5</ele><time>2026-04-27T15:21:42.736Z</time></trkpt><trkpt lat="43.7081364" lon="11.1700157"><ele>283.6666666666667</ele><time>2026-04-27T15:21:44.737Z</time></trkpt><trkpt lat="43.7081093" lon="11.1699078"><ele>282.8333333333333</ele><time>2026-04-27T15:21:46.737Z</time></trkpt><trkpt lat="43.7080822" lon="11.1697792"><ele>282.0</ele><time>2026-04-27T15:21:48.736Z</time></trkpt><trkpt lat="43.7080213" lon="11.1695641"><ele>280.0</ele><time>2026-04-27T15:21:50.735Z</time></trkpt><trkpt lat="43.7080024" lon="11.1694618"><ele>278.0</ele><time>2026-04-27T15:21:51.736Z</time></trkpt><trkpt lat="43.7079299" lon="11.1693109"><ele>276.0</ele><time>2026-04-27T15:21:52.736Z</time></trkpt><trkpt lat="43.7078634" lon="11.169192"><ele>274.0</ele><time>2026-04-27T15:21:53.739Z</time></trkpt><trkpt lat="43.7077979" lon="11.1690626"><ele>272.0</ele><time>2026-04-27T15:21:54.745Z</time></trkpt><trkpt lat="43.7077438" lon="11.1689688"><ele>272.5</ele><time>2026-04-27T15:21:55.737Z</time></trkpt><trkpt lat="43.7077054" lon="11.1688828"><ele>273.0</ele><time>2026-04-27T15:21:56.735Z</time></trkpt><trkpt lat="43.7076446" lon="11.1687799"><ele>273.5</ele><time>2026-04-27T15:21:58.736Z</time></trkpt><trkpt lat="43.7075888" lon="11.1686973"><ele>274.0</ele><time>2026-04-27T15:22:01.737Z</time></trkpt><trkpt lat="43.7075323" lon="11.1686541"><ele>274.5</ele><time>2026-04-27T15:22:32.737Z</time></trkpt><trkpt lat="43.7074778" lon="11.168583"><ele>275.0</ele><time>2026-04-27T15:22:34.747Z</time></trkpt><trkpt lat="43.7075576" lon="11.1685651"><ele>275.0</ele><time>2026-04-27T15:22:38.737Z</time></trkpt><trkpt lat="43.7076215" lon="11.1686138"><ele>275.0</ele><time>2026-04-27T15:22:41.737Z</time></trkpt><trkpt lat="43.7076597" lon="11.1686871"><ele>275.0</ele><time>2026-04-27T15:22:43.736Z</time></trkpt><trkpt lat="43.7076823" lon="11.168794"><ele>275.0</ele><time>2026-04-27T15:22:45.737Z</time></trkpt><trkpt lat="43.7077156" lon="11.1688871"><ele>275.0</ele><time>2026-04-27T15:22:47.74Z</time></trkpt><trkpt lat="43.7077263" lon="11.1689789"><ele>275.0</ele><time>2026-04-27T15:22:49.738Z</time></trkpt><trkpt lat="43.7077533" lon="11.1690701"><ele>275.0</ele><time>2026-04-27T15:22:51.737Z</time></trkpt><trkpt lat="43.7078309" lon="11.169049"><ele>273.1666666666667</ele><time>2026-04-27T15:22:54.735Z</time></trkpt><trkpt lat="43.7078091" lon="11.1689013"><ele>271.33333333333337</ele><time>2026-04-27T15:22:57.74Z</time></trkpt><trkpt lat="43.7077922" lon="11.1688108"><ele>269.5</ele><time>2026-04-27T15:22:58.737Z</time></trkpt><trkpt lat="43.7077756" lon="11.1687187"><ele>267.6666666666667</ele><time>2026-04-27T15:22:59.741Z</time></trkpt><trkpt lat="43.7077566" lon="11.1685939"><ele>265.8333333333333</ele><time>2026-04-27T15:23:00.745Z</time></trkpt><trkpt lat="43.7077581" lon="11.1684927"><ele>264.0</ele><time>2026-04-27T15:23:01.736Z</time></trkpt><trkpt lat="43.7077613" lon="11.1683691"><ele>264.0</ele><time>2026-04-27T15:23:02.739Z</time></trkpt><trkpt lat="43.707767" lon="11.1682523"><ele>264.0</ele><time>2026-04-27T15:23:03.739Z</time></trkpt><trkpt lat="43.7077655" lon="11.1681359"><ele>264.0</ele><time>2026-04-27T15:23:04.735Z</time></trkpt><trkpt lat="43.7077586" lon="11.1680273"><ele>264.0</ele><time>2026-04-27T15:23:05.739Z</time></trkpt><trkpt lat="43.7077426" lon="11.1679128"><ele>264.0</ele><time>2026-04-27T15:23:06.742Z</time></trkpt><trkpt lat="43.7077312" lon="11.1678145"><ele>264.0</ele><time>2026-04-27T15:23:07.737Z</time></trkpt><trkpt lat="43.7077353" lon="11.1677274"><ele>263.59999999999997</ele><time>2026-04-27T15:23:08.738Z</time></trkpt><trkpt lat="43.7077582" lon="11.1675699"><ele>263.2</ele><time>2026-04-27T15:23:10.737Z</time></trkpt><trkpt lat="43.7077999" lon="11.1674182"><ele>262.79999999999995</ele><time>2026-04-27T15:23:12.743Z</time></trkpt><trkpt lat="43.7078188" lon="11.1672864"><ele>262.4</ele><time>2026-04-27T15:23:14.736Z</time></trkpt><trkpt lat="43.7077904" lon="11.1671538"><ele>262.0</ele><time>2026-04-27T15:23:16.737Z</time></trkpt><trkpt lat="43.7077957" lon="11.1670371"><ele>260.8333333333333</ele><time>2026-04-27T15:23:18.736Z</time></trkpt><trkpt lat="43.7078236" lon="11.1669473"><ele>259.66666666666663</ele><time>2026-04-27T15:23:20.735Z</time></trkpt><trkpt lat="43.7078897" lon="11.1668392"><ele>258.5</ele><time>2026-04-27T15:23:22.735Z</time></trkpt><trkpt lat="43.7079293" lon="11.1667662"><ele>257.3333333333333</ele><time>2026-04-27T15:23:24.733Z</time></trkpt><trkpt lat="43.7079687" lon="11.1666924"><ele>256.1666666666667</ele><time>2026-04-27T15:23:28.744Z</time></trkpt><trkpt lat="43.7080327" lon="11.1666644"><ele>255.0</ele><time>2026-04-27T15:23:33.734Z</time></trkpt><trkpt lat="43.7081181" lon="11.1666483"><ele>255.0</ele><time>2026-04-27T15:23:36.74Z</time></trkpt><trkpt lat="43.7082024" lon="11.1666481"><ele>255.0</ele><time>2026-04-27T15:23:39.734Z</time></trkpt><trkpt lat="43.7082776" lon="11.166671"><ele>255.0</ele><time>2026-04-27T15:23:42.734Z</time></trkpt><trkpt lat="43.7083528" lon="11.1667166"><ele>255.0</ele><time>2026-04-27T15:23:45.738Z</time></trkpt><trkpt lat="43.708418" lon="11.1667791"><ele>255.0</ele><time>2026-04-27T15:23:47.734Z</time></trkpt><trkpt lat="43.7084684" lon="11.1668614"><ele>255.0</ele><time>2026-04-27T15:23:49.736Z</time></trkpt><trkpt lat="43.7084748" lon="11.1669724"><ele>255.0</ele><time>2026-04-27T15:23:55.735Z</time></trkpt><trkpt lat="43.7085672" lon="11.1670236"><ele>255.0</ele><time>2026-04-27T15:23:57.732Z</time></trkpt><trkpt lat="43.7087011" lon="11.1670589"><ele>255.0</ele><time>2026-04-27T15:24:00.742Z</time></trkpt><trkpt lat="43.7088055" lon="11.16707"><ele>255.0</ele><time>2026-04-27T15:24:01.736Z</time></trkpt><trkpt lat="43.708878" lon="11.1670404"><ele>255.0</ele><time>2026-04-27T15:24:02.735Z</time></trkpt><trkpt lat="43.7089661" lon="11.1669677"><ele>253.83333333333334</ele><time>2026-04-27T15:24:04.735Z</time></trkpt><trkpt lat="43.7089921" lon="11.1668468"><ele>252.66666666666669</ele><time>2026-04-27T15:24:07.734Z</time></trkpt><trkpt lat="43.7091021" lon="11.1667998"><ele>251.5</ele><time>2026-04-27T15:24:09.737Z</time></trkpt><trkpt lat="43.7091623" lon="11.16674"><ele>250.33333333333334</ele><time>2026-04-27T15:24:11.735Z</time></trkpt><trkpt lat="43.7092127" lon="11.1666494"><ele>249.16666666666669</ele><time>2026-04-27T15:24:14.735Z</time></trkpt><trkpt lat="43.7092593" lon="11.1665507"><ele>248.0</ele><time>2026-04-27T15:24:18.739Z</time></trkpt><trkpt lat="43.7093381" lon="11.1665377"><ele>249.2</ele><time>2026-04-27T15:24:23.735Z</time></trkpt><trkpt lat="43.7094203" lon="11.1665679"><ele>250.4</ele><time>2026-04-27T15:24:26.737Z</time></trkpt><trkpt lat="43.7095006" lon="11.1665823"><ele>251.59999999999997</ele><time>2026-04-27T15:24:29.738Z</time></trkpt><trkpt lat="43.7096446" lon="11.1665858"><ele>252.79999999999998</ele><time>2026-04-27T15:24:52.732Z</time></trkpt><trkpt lat="43.7097518" lon="11.1666014"><ele>254.0</ele><time>2026-04-27T15:24:54.74Z</time></trkpt><trkpt lat="43.7099045" lon="11.1665889"><ele>254.00000000000003</ele><time>2026-04-27T15:24:58.733Z</time></trkpt><trkpt lat="43.7099646" lon="11.1665332"><ele>254.0</ele><time>2026-04-27T15:25:02.733Z</time></trkpt><trkpt lat="43.7100482" lon="11.1665194"><ele>254.0</ele><time>2026-04-27T15:25:05.738Z</time></trkpt><trkpt lat="43.710112" lon="11.1665356"><ele>254.0</ele><time>2026-04-27T15:25:12.735Z</time></trkpt><trkpt lat="43.7100631" lon="11.1664602"><ele>254.00000000000003</ele><time>2026-04-27T15:25:32.738Z</time></trkpt><trkpt lat="43.7099829" lon="11.1664407"><ele>254.0</ele><time>2026-04-27T15:25:35.735Z</time></trkpt><trkpt lat="43.7099122" lon="11.1663823"><ele>254.00000000000003</ele><time>2026-04-27T15:25:39.737Z</time></trkpt><trkpt lat="43.7098443" lon="11.1663636"><ele>254.0</ele><time>2026-04-27T15:25:43.736Z</time></trkpt><trkpt lat="43.7097435" lon="11.1663447"><ele>254.0</ele><time>2026-04-27T15:25:46.737Z</time></trkpt><trkpt lat="43.709672" lon="11.1663145"><ele>254.0</ele><time>2026-04-27T15:25:48.734Z</time></trkpt><trkpt lat="43.7096031" lon="11.1662751"><ele>254.00000000000003</ele><time>2026-04-27T15:25:50.735Z</time></trkpt><trkpt lat="43.7095435" lon="11.1662248"><ele>254.0</ele><time>2026-04-27T15:25:55.737Z</time></trkpt><trkpt lat="43.7094783" lon="11.1661486"><ele>253.50000000000003</ele><time>2026-04-27T15:25:58.734Z</time></trkpt><trkpt lat="43.7093944" lon="11.1661184"><ele>253.0</ele><time>2026-04-27T15:26:00.734Z</time></trkpt><trkpt lat="43.7093354" lon="11.166074"><ele>252.5</ele><time>2026-04-27T15:26:04.734Z</time></trkpt><trkpt lat="43.709293" lon="11.1660086"><ele>252.0</ele><time>2026-04-27T15:26:36.738Z</time></trkpt><trkpt lat="43.7092229" lon="11.1659495"><ele>251.50000000000003</ele><time>2026-04-27T15:26:37.736Z</time></trkpt><trkpt lat="43.7091295" lon="11.1658613"><ele>251.0</ele><time>2026-04-27T15:26:38.745Z</time></trkpt><trkpt lat="43.7090377" lon="11.1656677"><ele>251.0</ele><time>2026-04-27T15:26:40.742Z</time></trkpt><trkpt lat="43.7090827" lon="11.1657922"><ele>251.00000000000003</ele><time>2026-04-27T15:26:42.715Z</time></trkpt><trkpt lat="43.709019" lon="11.1657194"><ele>251.00000000000003</ele><time>2026-04-27T15:26:43.736Z</time></trkpt><trkpt lat="43.708959" lon="11.1655983"><ele>251.0</ele><time>2026-04-27T15:26:44.74Z</time></trkpt><trkpt lat="43.7089073" lon="11.1654792"><ele>251.0</ele><time>2026-04-27T15:26:45.733Z</time></trkpt><trkpt lat="43.7088744" lon="11.1653949"><ele>251.00000000000003</ele><time>2026-04-27T15:26:46.739Z</time></trkpt><trkpt lat="43.7088385" lon="11.165287"><ele>251.0</ele><time>2026-04-27T15:26:47.731Z</time></trkpt><trkpt lat="43.7087971" lon="11.1652064"><ele>251.0</ele><time>2026-04-27T15:26:49.733Z</time></trkpt><trkpt lat="43.7087262" lon="11.1651652"><ele>251.0</ele><time>2026-04-27T15:26:56.735Z</time></trkpt><trkpt lat="43.7086663" lon="11.1651309"><ele>251.00000000000003</ele><time>2026-04-27T15:26:58.737Z</time></trkpt><trkpt lat="43.7086093" lon="11.1650406"><ele>251.0</ele><time>2026-04-27T15:27:01.738Z</time></trkpt><trkpt lat="43.7085953" lon="11.1649328"><ele>250.5</ele><time>2026-04-27T15:27:03.733Z</time></trkpt><trkpt lat="43.7085544" lon="11.1648341"><ele>250.0</ele><time>2026-04-27T15:27:06.737Z</time></trkpt><trkpt lat="43.7084847" lon="11.1647562"><ele>249.5</ele><time>2026-04-27T15:27:09.737Z</time></trkpt><trkpt lat="43.7084427" lon="11.1646663"><ele>249.0</ele><time>2026-04-27T15:27:11.732Z</time></trkpt><trkpt lat="43.7083038" lon="11.1644063"><ele>249.0</ele><time>2026-04-27T15:27:13.734Z</time></trkpt><trkpt lat="43.7082661" lon="11.1643204"><ele>249.0</ele><time>2026-04-27T15:27:15.736Z</time></trkpt><trkpt lat="43.7082309" lon="11.164244"><ele>249.0</ele><time>2026-04-27T15:27:17.739Z</time></trkpt><trkpt lat="43.708174" lon="11.1641689"><ele>249.0</ele><time>2026-04-27T15:27:19.737Z</time></trkpt><trkpt lat="43.7081299" lon="11.164077"><ele>249.0</ele><time>2026-04-27T15:27:21.734Z</time></trkpt><trkpt lat="43.7080776" lon="11.1639751"><ele>249.0</ele><time>2026-04-27T15:27:23.733Z</time></trkpt><trkpt lat="43.7080501" lon="11.1638758"><ele>250.83333333333334</ele><time>2026-04-27T15:27:26.733Z</time></trkpt><trkpt lat="43.7079994" lon="11.1637865"><ele>252.66666666666669</ele><time>2026-04-27T15:27:29.739Z</time></trkpt><trkpt lat="43.7079449" lon="11.1637201"><ele>254.5</ele><time>2026-04-27T15:27:31.732Z</time></trkpt><trkpt lat="43.7078932" lon="11.1636619"><ele>256.33333333333337</ele><time>2026-04-27T15:27:34.733Z</time></trkpt><trkpt lat="43.7078557" lon="11.1635786"><ele>258.1666666666667</ele><time>2026-04-27T15:27:39.735Z</time></trkpt><trkpt lat="43.7077889" lon="11.1635167"><ele>260.0</ele><time>2026-04-27T15:27:42.734Z</time></trkpt><trkpt lat="43.7077516" lon="11.1633987"><ele>256.5</ele><time>2026-04-27T15:27:45.744Z</time></trkpt><trkpt lat="43.7077308" lon="11.1633034"><ele>253.0</ele><time>2026-04-27T15:27:47.737Z</time></trkpt><trkpt lat="43.7077274" lon="11.1632083"><ele>249.5</ele><time>2026-04-27T15:27:49.741Z</time></trkpt><trkpt lat="43.7076963" lon="11.1631045"><ele>246.0</ele><time>2026-04-27T15:27:52.734Z</time></trkpt><trkpt lat="43.7076579" lon="11.1630068"><ele>242.50000000000003</ele><time>2026-04-27T15:27:55.739Z</time></trkpt><trkpt lat="43.7076499" lon="11.1628981"><ele>239.0</ele><time>2026-04-27T15:27:58.738Z</time></trkpt><trkpt lat="43.7076267" lon="11.1628093"><ele>239.00000000000003</ele><time>2026-04-27T15:28:02.733Z</time></trkpt><trkpt lat="43.7076491" lon="11.1626916"><ele>239.0</ele><time>2026-04-27T15:28:05.737Z</time></trkpt><trkpt lat="43.7076629" lon="11.1625759"><ele>239.0</ele><time>2026-04-27T15:28:07.739Z</time></trkpt><trkpt lat="43.7076633" lon="11.1624776"><ele>239.0</ele><time>2026-04-27T15:28:09.738Z</time></trkpt><trkpt lat="43.7076498" lon="11.1623545"><ele>239.00000000000003</ele><time>2026-04-27T15:28:11.734Z</time></trkpt><trkpt lat="43.7076743" lon="11.1622356"><ele>239.0</ele><time>2026-04-27T15:28:13.737Z</time></trkpt><trkpt lat="43.7076601" lon="11.1621204"><ele>239.5714285714286</ele><time>2026-04-27T15:28:15.733Z</time></trkpt><trkpt lat="43.7076528" lon="11.1620177"><ele>240.14285714285717</ele><time>2026-04-27T15:28:17.736Z</time></trkpt><trkpt lat="43.7076481" lon="11.1619018"><ele>240.71428571428572</ele><time>2026-04-27T15:28:20.737Z</time></trkpt><trkpt lat="43.7076621" lon="11.161814"><ele>241.2857142857143</ele><time>2026-04-27T15:28:22.734Z</time></trkpt><trkpt lat="43.7076304" lon="11.1617346"><ele>241.8571428571429</ele><time>2026-04-27T15:28:26.739Z</time></trkpt><trkpt lat="43.7075834" lon="11.1616647"><ele>242.42857142857142</ele><time>2026-04-27T15:28:28.737Z</time></trkpt><trkpt lat="43.707573" lon="11.1615615"><ele>243.0</ele><time>2026-04-27T15:28:29.734Z</time></trkpt><trkpt lat="43.707535" lon="11.1614436"><ele>243.83333333333334</ele><time>2026-04-27T15:28:32.734Z</time></trkpt><trkpt lat="43.7074833" lon="11.1613849"><ele>244.66666666666669</ele><time>2026-04-27T15:28:33.736Z</time></trkpt><trkpt lat="43.7074494" lon="11.1612802"><ele>245.5</ele><time>2026-04-27T15:28:36.736Z</time></trkpt><trkpt lat="43.7074703" lon="11.1611495"><ele>246.33333333333334</ele><time>2026-04-27T15:28:38.738Z</time></trkpt><trkpt lat="43.7074876" lon="11.1610466"><ele>247.16666666666669</ele><time>2026-04-27T15:28:39.738Z</time></trkpt><trkpt lat="43.7075164" lon="11.1609505"><ele>248.0</ele><time>2026-04-27T15:28:41.734Z</time></trkpt><trkpt lat="43.7074845" lon="11.1608754"><ele>248.0</ele><time>2026-04-27T15:28:44.733Z</time></trkpt><trkpt lat="43.7074135" lon="11.1608266"><ele>248.0</ele><time>2026-04-27T15:28:46.739Z</time></trkpt><trkpt lat="43.7073083" lon="11.1608353"><ele>248.0</ele><time>2026-04-27T15:28:47.735Z</time></trkpt><trkpt lat="43.7071961" lon="11.1607938"><ele>248.0</ele><time>2026-04-27T15:28:49.739Z</time></trkpt><trkpt lat="43.7071312" lon="11.1607928"><ele>248.0</ele><time>2026-04-27T15:28:50.735Z</time></trkpt><trkpt lat="43.7069903" lon="11.1607151"><ele>246.0</ele><time>2026-04-27T15:28:52.734Z</time></trkpt><trkpt lat="43.7068691" lon="11.1606198"><ele>244.0</ele><time>2026-04-27T15:28:54.735Z</time></trkpt><trkpt lat="43.706791" lon="11.160576"><ele>242.0</ele><time>2026-04-27T15:28:55.735Z</time></trkpt><trkpt lat="43.7067266" lon="11.1605281"><ele>240.0</ele><time>2026-04-27T15:28:56.738Z</time></trkpt><trkpt lat="43.7066676" lon="11.1604846"><ele>238.0</ele><time>2026-04-27T15:28:57.736Z</time></trkpt><trkpt lat="43.7065769" lon="11.160428"><ele>238.0</ele><time>2026-04-27T15:28:59.742Z</time></trkpt><trkpt lat="43.7064801" lon="11.1603637"><ele>238.0</ele><time>2026-04-27T15:29:01.738Z</time></trkpt><trkpt lat="43.7063788" lon="11.1602794"><ele>238.0</ele><time>2026-04-27T15:29:03.735Z</time></trkpt><trkpt lat="43.7063237" lon="11.1602163"><ele>238.0</ele><time>2026-04-27T15:29:04.742Z</time></trkpt><trkpt lat="43.7062568" lon="11.1601627"><ele>238.0</ele><time>2026-04-27T15:29:05.739Z</time></trkpt><trkpt lat="43.7061749" lon="11.1600879"><ele>237.99999999999997</ele><time>2026-04-27T15:29:06.738Z</time></trkpt><trkpt lat="43.7060933" lon="11.1600536"><ele>238.0</ele><time>2026-04-27T15:29:07.735Z</time></trkpt><trkpt lat="43.7060385" lon="11.159997"><ele>238.0</ele><time>2026-04-27T15:29:08.736Z</time></trkpt><trkpt lat="43.7059882" lon="11.1599349"><ele>238.0</ele><time>2026-04-27T15:29:09.735Z</time></trkpt><trkpt lat="43.7059165" lon="11.15987"><ele>237.99999999999997</ele><time>2026-04-27T15:29:10.736Z</time></trkpt><trkpt lat="43.7058194" lon="11.1597947"><ele>238.0</ele><time>2026-04-27T15:29:11.738Z</time></trkpt><trkpt lat="43.7056781" lon="11.1597012"><ele>237.33333333333331</ele><time>2026-04-27T15:29:12.736Z</time></trkpt><trkpt lat="43.7055799" lon="11.1596096"><ele>236.66666666666666</ele><time>2026-04-27T15:29:13.735Z</time></trkpt><trkpt lat="43.7055063" lon="11.1595722"><ele>236.0</ele><time>2026-04-27T15:29:14.736Z</time></trkpt><trkpt lat="43.7054282" lon="11.1595209"><ele>235.33333333333331</ele><time>2026-04-27T15:29:15.735Z</time></trkpt><trkpt lat="43.7053509" lon="11.1595007"><ele>234.66666666666666</ele><time>2026-04-27T15:29:16.735Z</time></trkpt><trkpt lat="43.7052767" lon="11.1594577"><ele>234.0</ele><time>2026-04-27T15:29:17.739Z</time></trkpt><trkpt lat="43.705196" lon="11.1593705"><ele>234.5</ele><time>2026-04-27T15:29:19.736Z</time></trkpt><trkpt lat="43.7051007" lon="11.1592973"><ele>235.0</ele><time>2026-04-27T15:29:21.737Z</time></trkpt><trkpt lat="43.7050172" lon="11.159229"><ele>235.5</ele><time>2026-04-27T15:29:22.745Z</time></trkpt><trkpt lat="43.7049741" lon="11.1591499"><ele>236.0</ele><time>2026-04-27T15:29:23.735Z</time></trkpt><trkpt lat="43.7049119" lon="11.1591085"><ele>236.5</ele><time>2026-04-27T15:29:24.741Z</time></trkpt><trkpt lat="43.7048398" lon="11.1590812"><ele>237.0</ele><time>2026-04-27T15:29:25.735Z</time></trkpt><trkpt lat="43.7047685" lon="11.1590232"><ele>237.0</ele><time>2026-04-27T15:29:26.734Z</time></trkpt><trkpt lat="43.7046791" lon="11.1589584"><ele>237.0</ele><time>2026-04-27T15:29:27.738Z</time></trkpt><trkpt lat="43.7045927" lon="11.1588865"><ele>237.0</ele><time>2026-04-27T15:29:28.739Z</time></trkpt><trkpt lat="43.7045245" lon="11.1588066"><ele>237.0</ele><time>2026-04-27T15:29:29.735Z</time></trkpt><trkpt lat="43.7044533" lon="11.1587263"><ele>237.0</ele><time>2026-04-27T15:29:30.737Z</time></trkpt><trkpt lat="43.7043848" lon="11.1586689"><ele>239.33333333333334</ele><time>2026-04-27T15:29:31.735Z</time></trkpt><trkpt lat="43.704295" lon="11.1586253"><ele>241.66666666666669</ele><time>2026-04-27T15:29:32.738Z</time></trkpt><trkpt lat="43.7042107" lon="11.1585917"><ele>244.0</ele><time>2026-04-27T15:29:33.737Z</time></trkpt><trkpt lat="43.7041158" lon="11.1585825"><ele>246.33333333333334</ele><time>2026-04-27T15:29:34.738Z</time></trkpt><trkpt lat="43.7040297" lon="11.1585074"><ele>248.66666666666669</ele><time>2026-04-27T15:29:35.737Z</time></trkpt><trkpt lat="43.7039656" lon="11.1584923"><ele>251.0</ele><time>2026-04-27T15:29:36.736Z</time></trkpt><trkpt lat="43.7038954" lon="11.1584556"><ele>251.0</ele><time>2026-04-27T15:29:37.738Z</time></trkpt><trkpt lat="43.7037946" lon="11.1583853"><ele>251.0</ele><time>2026-04-27T15:29:38.735Z</time></trkpt><trkpt lat="43.7036773" lon="11.1582765"><ele>251.0</ele><time>2026-04-27T15:29:40.737Z</time></trkpt><trkpt lat="43.703544" lon="11.158228"><ele>251.0</ele><time>2026-04-27T15:29:42.737Z</time></trkpt><trkpt lat="43.7034604" lon="11.1582281"><ele>250.00000000000003</ele><time>2026-04-27T15:29:44.739Z</time></trkpt><trkpt lat="43.7033731" lon="11.1581626"><ele>249.0</ele><time>2026-04-27T15:29:46.736Z</time></trkpt><trkpt lat="43.7032998" lon="11.158109"><ele>248.0</ele><time>2026-04-27T15:29:49.734Z</time></trkpt><trkpt lat="43.7032278" lon="11.1580738"><ele>247.0</ele><time>2026-04-27T15:29:51.734Z</time></trkpt><trkpt lat="43.703154" lon="11.1580192"><ele>246.00000000000003</ele><time>2026-04-27T15:29:53.735Z</time></trkpt><trkpt lat="43.7031153" lon="11.1579504"><ele>245.0</ele><time>2026-04-27T15:29:54.75Z</time></trkpt><trkpt lat="43.7030573" lon="11.1578643"><ele>245.00000000000003</ele><time>2026-04-27T15:29:55.735Z</time></trkpt><trkpt lat="43.7029523" lon="11.1578318"><ele>245.0</ele><time>2026-04-27T15:29:57.736Z</time></trkpt><trkpt lat="43.7028846" lon="11.1578099"><ele>245.0</ele><time>2026-04-27T15:29:58.734Z</time></trkpt><trkpt lat="43.7028047" lon="11.1577321"><ele>245.0</ele><time>2026-04-27T15:30:00.734Z</time></trkpt><trkpt lat="43.7027405" lon="11.1576981"><ele>245.00000000000003</ele><time>2026-04-27T15:30:01.739Z</time></trkpt><trkpt lat="43.7026724" lon="11.1576615"><ele>245.0</ele><time>2026-04-27T15:30:03.736Z</time></trkpt><trkpt lat="43.7026067" lon="11.1576338"><ele>245.71428571428572</ele><time>2026-04-27T15:30:06.734Z</time></trkpt><trkpt lat="43.7025499" lon="11.1575725"><ele>246.42857142857144</ele><time>2026-04-27T15:30:11.743Z</time></trkpt><trkpt lat="43.7025436" lon="11.1574831"><ele>247.14285714285714</ele><time>2026-04-27T15:30:15.734Z</time></trkpt><trkpt lat="43.7024714" lon="11.1574248"><ele>247.85714285714286</ele><time>2026-04-27T15:30:21.738Z</time></trkpt><trkpt lat="43.702409" lon="11.1573754"><ele>248.57142857142858</ele><time>2026-04-27T15:30:26.737Z</time></trkpt><trkpt lat="43.7023614" lon="11.1572992"><ele>249.28571428571428</ele><time>2026-04-27T15:30:29.735Z</time></trkpt><trkpt lat="43.7023282" lon="11.157225"><ele>250.0</ele><time>2026-04-27T15:30:32.733Z</time></trkpt><trkpt lat="43.7022692" lon="11.1571364"><ele>248.66666666666666</ele><time>2026-04-27T15:30:35.74Z</time></trkpt><trkpt lat="43.7022202" lon="11.1570501"><ele>247.33333333333331</ele><time>2026-04-27T15:30:37.762Z</time></trkpt><trkpt lat="43.7020381" lon="11.1568723"><ele>246.0</ele><time>2026-04-27T15:30:38.734Z</time></trkpt><trkpt lat="43.7018911" lon="11.1567506"><ele>246.0</ele><time>2026-04-27T15:30:39.735Z</time></trkpt><trkpt lat="43.7017702" lon="11.1566656"><ele>246.0</ele><time>2026-04-27T15:30:40.734Z</time></trkpt><trkpt lat="43.701651" lon="11.1565532"><ele>246.0</ele><time>2026-04-27T15:30:41.734Z</time></trkpt><trkpt lat="43.7015366" lon="11.1564182"><ele>246.0</ele><time>2026-04-27T15:30:42.736Z</time></trkpt><trkpt lat="43.7014688" lon="11.1563619"><ele>242.4</ele><time>2026-04-27T15:30:43.735Z</time></trkpt><trkpt lat="43.7013988" lon="11.1563065"><ele>238.8</ele><time>2026-04-27T15:30:44.737Z</time></trkpt><trkpt lat="43.7013147" lon="11.1562236"><ele>235.20000000000002</ele><time>2026-04-27T15:30:45.733Z</time></trkpt><trkpt lat="43.7011883" lon="11.156085"><ele>231.60000000000002</ele><time>2026-04-27T15:30:47.733Z</time></trkpt><trkpt lat="43.701139" lon="11.1560195"><ele>228.0</ele><time>2026-04-27T15:30:48.734Z</time></trkpt><trkpt lat="43.7010135" lon="11.1559187"><ele>228.0</ele><time>2026-04-27T15:30:51.743Z</time></trkpt><trkpt lat="43.7009216" lon="11.155864"><ele>228.0</ele><time>2026-04-27T15:30:53.741Z</time></trkpt><trkpt lat="43.7007892" lon="11.1558634"><ele>228.0</ele><time>2026-04-27T15:30:55.74Z</time></trkpt><trkpt lat="43.7007191" lon="11.1558473"><ele>228.0</ele><time>2026-04-27T15:30:56.733Z</time></trkpt><trkpt lat="43.7006136" lon="11.1557873"><ele>228.0</ele><time>2026-04-27T15:30:58.733Z</time></trkpt><trkpt lat="43.7005821" lon="11.1557016"><ele>224.83333333333334</ele><time>2026-04-27T15:31:00.735Z</time></trkpt><trkpt lat="43.7005515" lon="11.1555352"><ele>221.66666666666669</ele><time>2026-04-27T15:31:02.746Z</time></trkpt><trkpt lat="43.7005308" lon="11.1554428"><ele>218.5</ele><time>2026-04-27T15:31:03.738Z</time></trkpt><trkpt lat="43.7004764" lon="11.1553347"><ele>215.33333333333334</ele><time>2026-04-27T15:31:04.734Z</time></trkpt><trkpt lat="43.7004544" lon="11.1552489"><ele>212.16666666666669</ele><time>2026-04-27T15:31:05.736Z</time></trkpt><trkpt lat="43.7004267" lon="11.1551381"><ele>209.0</ele><time>2026-04-27T15:31:06.742Z</time></trkpt><trkpt lat="43.7003628" lon="11.1550182"><ele>209.0</ele><time>2026-04-27T15:31:07.737Z</time></trkpt><trkpt lat="43.7003537" lon="11.1549108"><ele>209.0</ele><time>2026-04-27T15:31:08.736Z</time></trkpt><trkpt lat="43.7002851" lon="11.15477"><ele>209.0</ele><time>2026-04-27T15:31:10.735Z</time></trkpt><trkpt lat="43.7002585" lon="11.1546828"><ele>209.0</ele><time>2026-04-27T15:31:12.733Z</time></trkpt><trkpt lat="43.7002338" lon="11.1545381"><ele>209.0</ele><time>2026-04-27T15:31:15.739Z</time></trkpt><trkpt lat="43.7001759" lon="11.1544144"><ele>207.6</ele><time>2026-04-27T15:31:17.738Z</time></trkpt><trkpt lat="43.7001307" lon="11.1543379"><ele>206.2</ele><time>2026-04-27T15:31:18.736Z</time></trkpt><trkpt lat="43.7001256" lon="11.154206"><ele>204.79999999999998</ele><time>2026-04-27T15:31:20.735Z</time></trkpt><trkpt lat="43.700109" lon="11.1540651"><ele>203.39999999999998</ele><time>2026-04-27T15:31:22.736Z</time></trkpt><trkpt lat="43.7001049" lon="11.1539193"><ele>202.0</ele><time>2026-04-27T15:31:24.733Z</time></trkpt><trkpt lat="43.7000049" lon="11.1539025"><ele>202.0</ele><time>2026-04-27T15:31:27.738Z</time></trkpt><trkpt lat="43.6999675" lon="11.1540249"><ele>202.0</ele><time>2026-04-27T15:31:29.735Z</time></trkpt><trkpt lat="43.6999205" lon="11.1542115"><ele>202.0</ele><time>2026-04-27T15:31:31.733Z</time></trkpt><trkpt lat="43.6999234" lon="11.15431"><ele>202.0</ele><time>2026-04-27T15:31:32.735Z</time></trkpt><trkpt lat="43.6998832" lon="11.1544676"><ele>202.0</ele><time>2026-04-27T15:31:34.734Z</time></trkpt><trkpt lat="43.6998583" lon="11.1545502"><ele>202.0</ele><time>2026-04-27T15:31:35.74Z</time></trkpt><trkpt lat="43.6998495" lon="11.1546419"><ele>202.0</ele><time>2026-04-27T15:31:36.741Z</time></trkpt><trkpt lat="43.6998604" lon="11.1547508"><ele>202.0</ele><time>2026-04-27T15:31:37.741Z</time></trkpt><trkpt lat="43.6998606" lon="11.1548423"><ele>202.0</ele><time>2026-04-27T15:31:38.737Z</time></trkpt><trkpt lat="43.6998596" lon="11.1549473"><ele>202.0</ele><time>2026-04-27T15:31:39.736Z</time></trkpt><trkpt lat="43.6998431" lon="11.1550496"><ele>202.0</ele><time>2026-04-27T15:31:40.737Z</time></trkpt><trkpt lat="43.6998476" lon="11.155165"><ele>202.0</ele><time>2026-04-27T15:31:41.734Z</time></trkpt><trkpt lat="43.6998371" lon="11.1552607"><ele>202.16666666666666</ele><time>2026-04-27T15:31:42.738Z</time></trkpt><trkpt lat="43.6998302" lon="11.1553747"><ele>202.33333333333331</ele><time>2026-04-27T15:31:43.738Z</time></trkpt><trkpt lat="43.6998279" lon="11.1554835"><ele>202.5</ele><time>2026-04-27T15:31:44.735Z</time></trkpt><trkpt lat="43.699811" lon="11.1555939"><ele>202.66666666666669</ele><time>2026-04-27T15:31:45.737Z</time></trkpt><trkpt lat="43.699789" lon="11.1556946"><ele>202.83333333333334</ele><time>2026-04-27T15:31:46.734Z</time></trkpt><trkpt lat="43.6997693" lon="11.1558111"><ele>203.0</ele><time>2026-04-27T15:31:47.733Z</time></trkpt><trkpt lat="43.6997992" lon="11.1559289"><ele>202.5</ele><time>2026-04-27T15:31:48.74Z</time></trkpt><trkpt lat="43.6996856" lon="11.15604"><ele>202.0</ele><time>2026-04-27T15:31:49.737Z</time></trkpt><trkpt lat="43.6996292" lon="11.1561812"><ele>201.5</ele><time>2026-04-27T15:31:50.734Z</time></trkpt><trkpt lat="43.6996364" lon="11.1563162"><ele>201.0</ele><time>2026-04-27T15:31:51.732Z</time></trkpt><trkpt lat="43.699579" lon="11.1564641"><ele>201.0</ele><time>2026-04-27T15:31:52.736Z</time></trkpt><trkpt lat="43.6996642" lon="11.1564896"><ele>201.0</ele><time>2026-04-27T15:31:53.736Z</time></trkpt><trkpt lat="43.6996829" lon="11.1566467"><ele>201.0</ele><time>2026-04-27T15:31:55.737Z</time></trkpt><trkpt lat="43.6996654" lon="11.1567523"><ele>201.0</ele><time>2026-04-27T15:31:56.734Z</time></trkpt><trkpt lat="43.69966" lon="11.1568398"><ele>201.0</ele><time>2026-04-27T15:31:57.734Z</time></trkpt><trkpt lat="43.6996094" lon="11.1569504"><ele>201.0</ele><time>2026-04-27T15:31:59.738Z</time></trkpt><trkpt lat="43.6995528" lon="11.156908"><ele>200.4</ele><time>2026-04-27T15:32:01.739Z</time></trkpt><trkpt lat="43.6996118" lon="11.1569673"><ele>199.8</ele><time>2026-04-27T15:32:06.735Z</time></trkpt><trkpt lat="43.6996146" lon="11.1570645"><ele>199.20000000000002</ele><time>2026-04-27T15:32:17.738Z</time></trkpt><trkpt lat="43.6993963" lon="11.1570821"><ele>198.60000000000002</ele><time>2026-04-27T15:32:51.735Z</time></trkpt><trkpt lat="43.6993211" lon="11.1570693"><ele>198.0</ele><time>2026-04-27T15:32:52.732Z</time></trkpt><trkpt lat="43.6992305" lon="11.1569806"><ele>197.2</ele><time>2026-04-27T15:32:55.736Z</time></trkpt><trkpt lat="43.6991881" lon="11.1568166"><ele>196.4</ele><time>2026-04-27T15:32:57.732Z</time></trkpt><trkpt lat="43.69917" lon="11.156648"><ele>195.6</ele><time>2026-04-27T15:32:59.736Z</time></trkpt><trkpt lat="43.699142" lon="11.1565589"><ele>194.79999999999998</ele><time>2026-04-27T15:33:00.737Z</time></trkpt><trkpt lat="43.6991082" lon="11.1564409"><ele>194.0</ele><time>2026-04-27T15:33:01.736Z</time></trkpt><trkpt lat="43.699102" lon="11.1563044"><ele>194.0</ele><time>2026-04-27T15:33:02.737Z</time></trkpt><trkpt lat="43.6990449" lon="11.1562107"><ele>194.0</ele><time>2026-04-27T15:33:03.733Z</time></trkpt><trkpt lat="43.6990068" lon="11.1560705"><ele>194.0</ele><time>2026-04-27T15:33:04.735Z</time></trkpt><trkpt lat="43.6989783" lon="11.1559821"><ele>194.0</ele><time>2026-04-27T15:33:05.735Z</time></trkpt><trkpt lat="43.698835" lon="11.1558026"><ele>193.66666666666669</ele><time>2026-04-27T15:33:06.735Z</time></trkpt><trkpt lat="43.6988097" lon="11.15569"><ele>193.33333333333334</ele><time>2026-04-27T15:33:07.732Z</time></trkpt><trkpt lat="43.6988578" lon="11.1555792"><ele>193.0</ele><time>2026-04-27T15:33:09.738Z</time></trkpt><trkpt lat="43.6988427" lon="11.1554578"><ele>192.66666666666669</ele><time>2026-04-27T15:33:11.737Z</time></trkpt><trkpt lat="43.6988805" lon="11.1553815"><ele>192.33333333333334</ele><time>2026-04-27T15:33:12.736Z</time></trkpt><trkpt lat="43.6988734" lon="11.1552807"><ele>192.0</ele><time>2026-04-27T15:33:13.736Z</time></trkpt><trkpt lat="43.6988594" lon="11.1551577"><ele>192.0</ele><time>2026-04-27T15:33:14.745Z</time></trkpt><trkpt lat="43.6987651" lon="11.1550271"><ele>192.0</ele><time>2026-04-27T15:33:15.735Z</time></trkpt><trkpt lat="43.6987214" lon="11.1549376"><ele>192.0</ele><time>2026-04-27T15:33:16.737Z</time></trkpt><trkpt lat="43.698698" lon="11.1548451"><ele>192.0</ele><time>2026-04-27T15:33:18.733Z</time></trkpt><trkpt lat="43.6985967" lon="11.154794"><ele>192.0</ele><time>2026-04-27T15:33:20.736Z</time></trkpt><trkpt lat="43.6985101" lon="11.1547571"><ele>196.0</ele><time>2026-04-27T15:33:22.736Z</time></trkpt><trkpt lat="43.6984036" lon="11.1546707"><ele>200.0</ele><time>2026-04-27T15:33:24.732Z</time></trkpt><trkpt lat="43.698368" lon="11.1543532"><ele>204.0</ele><time>2026-04-27T15:33:25.739Z</time></trkpt><trkpt lat="43.6983441" lon="11.154225"><ele>204.0</ele><time>2026-04-27T15:33:26.735Z</time></trkpt><trkpt lat="43.698348" lon="11.1541156"><ele>204.0</ele><time>2026-04-27T15:33:27.736Z</time></trkpt><trkpt lat="43.6983352" lon="11.1540003"><ele>204.0</ele><time>2026-04-27T15:33:28.734Z</time></trkpt><trkpt lat="43.6982991" lon="11.1538615"><ele>204.0</ele><time>2026-04-27T15:33:29.734Z</time></trkpt><trkpt lat="43.6982842" lon="11.1537375"><ele>204.0</ele><time>2026-04-27T15:33:30.736Z</time></trkpt><trkpt lat="43.6982132" lon="11.1536361"><ele>200.79999999999998</ele><time>2026-04-27T15:33:31.735Z</time></trkpt><trkpt lat="43.6981353" lon="11.1535984"><ele>197.6</ele><time>2026-04-27T15:33:32.734Z</time></trkpt><trkpt lat="43.6980363" lon="11.1535424"><ele>194.4</ele><time>2026-04-27T15:33:34.737Z</time></trkpt><trkpt lat="43.6979402" lon="11.1535092"><ele>191.2</ele><time>2026-04-27T15:33:35.74Z</time></trkpt><trkpt lat="43.6978184" lon="11.1535087"><ele>188.0</ele><time>2026-04-27T15:33:37.734Z</time></trkpt><trkpt lat="43.6977553" lon="11.1534888"><ele>190.5</ele><time>2026-04-27T15:33:38.735Z</time></trkpt><trkpt lat="43.6976903" lon="11.1537166"><ele>193.0</ele><time>2026-04-27T15:33:39.738Z</time></trkpt><trkpt lat="43.6975927" lon="11.1538106"><ele>195.5</ele><time>2026-04-27T15:33:40.735Z</time></trkpt><trkpt lat="43.6975008" lon="11.1538569"><ele>198.0</ele><time>2026-04-27T15:33:41.737Z</time></trkpt><trkpt lat="43.6974971" lon="11.1540007"><ele>199.16666666666666</ele><time>2026-04-27T15:33:42.732Z</time></trkpt><trkpt lat="43.6974315" lon="11.1540694"><ele>200.33333333333331</ele><time>2026-04-27T15:33:43.736Z</time></trkpt><trkpt lat="43.69737" lon="11.1541148"><ele>201.5</ele><time>2026-04-27T15:33:44.735Z</time></trkpt><trkpt lat="43.6972897" lon="11.1541597"><ele>202.66666666666666</ele><time>2026-04-27T15:33:46.736Z</time></trkpt><trkpt lat="43.6972805" lon="11.1542601"><ele>203.83333333333331</ele><time>2026-04-27T15:33:49.735Z</time></trkpt><trkpt lat="43.6972719" lon="11.1543528"><ele>205.0</ele><time>2026-04-27T15:33:56.737Z</time></trkpt><trkpt lat="43.6971181" lon="11.1543421"><ele>205.0</ele><time>2026-04-27T15:34:05.732Z</time></trkpt><trkpt lat="43.6970307" lon="11.1543536"><ele>205.0</ele><time>2026-04-27T15:34:07.737Z</time></trkpt><trkpt lat="43.6969279" lon="11.1543336"><ele>205.0</ele><time>2026-04-27T15:34:08.734Z</time></trkpt><trkpt lat="43.6968252" lon="11.1543576"><ele>205.0</ele><time>2026-04-27T15:34:10.735Z</time></trkpt><trkpt lat="43.696712" lon="11.1544141"><ele>205.0</ele><time>2026-04-27T15:34:12.733Z</time></trkpt><trkpt lat="43.6966285" lon="11.1544092"><ele>204.99999999999997</ele><time>2026-04-27T15:34:13.739Z</time></trkpt><trkpt lat="43.6965689" lon="11.1543229"><ele>205.0</ele><time>2026-04-27T15:34:15.735Z</time></trkpt><trkpt lat="43.6965036" lon="11.1542983"><ele>205.0</ele><time>2026-04-27T15:34:16.733Z</time></trkpt><trkpt lat="43.6964347" lon="11.1542789"><ele>205.0</ele><time>2026-04-27T15:34:18.734Z</time></trkpt><trkpt lat="43.6963258" lon="11.1542089"><ele>204.99999999999997</ele><time>2026-04-27T15:34:20.736Z</time></trkpt><trkpt lat="43.6962653" lon="11.1541551"><ele>205.0</ele><time>2026-04-27T15:34:22.733Z</time></trkpt><trkpt lat="43.6963124" lon="11.1539591"><ele>204.4</ele><time>2026-04-27T15:34:38.735Z</time></trkpt><trkpt lat="43.6963623" lon="11.1538258"><ele>203.8</ele><time>2026-04-27T15:34:40.737Z</time></trkpt><trkpt lat="43.6963863" lon="11.1536906"><ele>203.2</ele><time>2026-04-27T15:34:42.74Z</time></trkpt><trkpt lat="43.6964355" lon="11.1535802"><ele>202.6</ele><time>2026-04-27T15:34:44.734Z</time></trkpt><trkpt lat="43.6965148" lon="11.1534734"><ele>202.0</ele><time>2026-04-27T15:34:46.735Z</time></trkpt><trkpt lat="43.6965687" lon="11.1533836"><ele>202.0</ele><time>2026-04-27T15:34:48.735Z</time></trkpt><trkpt lat="43.6965767" lon="11.1532586"><ele>202.0</ele><time>2026-04-27T15:34:50.738Z</time></trkpt><trkpt lat="43.6966339" lon="11.1531973"><ele>202.0</ele><time>2026-04-27T15:34:53.734Z</time></trkpt><trkpt lat="43.6967214" lon="11.153116"><ele>202.0</ele><time>2026-04-27T15:34:56.734Z</time></trkpt><trkpt lat="43.6968116" lon="11.1530666"><ele>202.0</ele><time>2026-04-27T15:34:58.737Z</time></trkpt><trkpt lat="43.6968882" lon="11.1529778"><ele>200.2</ele><time>2026-04-27T15:35:00.735Z</time></trkpt><trkpt lat="43.6969498" lon="11.1528681"><ele>198.39999999999998</ele><time>2026-04-27T15:35:02.735Z</time></trkpt><trkpt lat="43.6970051" lon="11.1527548"><ele>196.60000000000002</ele><time>2026-04-27T15:35:04.734Z</time></trkpt><trkpt lat="43.6970485" lon="11.1526639"><ele>194.8</ele><time>2026-04-27T15:35:06.737Z</time></trkpt><trkpt lat="43.6971474" lon="11.1526144"><ele>193.0</ele><time>2026-04-27T15:35:10.739Z</time></trkpt><trkpt lat="43.6971895" lon="11.1525334"><ele>192.99999999999997</ele><time>2026-04-27T15:35:15.732Z</time></trkpt><trkpt lat="43.6972285" lon="11.1524377"><ele>193.0</ele><time>2026-04-27T15:35:19.738Z</time></trkpt><trkpt lat="43.697221" lon="11.1525252"><ele>193.0</ele><time>2026-04-27T15:35:48.737Z</time></trkpt><trkpt lat="43.697196" lon="11.1526057"><ele>193.0</ele><time>2026-04-27T15:35:50.732Z</time></trkpt><trkpt lat="43.6971413" lon="11.1527179"><ele>192.99999999999997</ele><time>2026-04-27T15:35:53.732Z</time></trkpt><trkpt lat="43.6970112" lon="11.1528038"><ele>193.0</ele><time>2026-04-27T15:35:54.734Z</time></trkpt><trkpt lat="43.6969551" lon="11.152888"><ele>193.2</ele><time>2026-04-27T15:35:56.735Z</time></trkpt><trkpt lat="43.6969035" lon="11.1529971"><ele>193.4</ele><time>2026-04-27T15:35:58.736Z</time></trkpt><trkpt lat="43.6968162" lon="11.1530726"><ele>193.6</ele><time>2026-04-27T15:36:00.734Z</time></trkpt><trkpt lat="43.6967243" lon="11.153145"><ele>193.79999999999998</ele><time>2026-04-27T15:36:02.732Z</time></trkpt><trkpt lat="43.6966339" lon="11.1532394"><ele>194.0</ele><time>2026-04-27T15:36:04.739Z</time></trkpt><trkpt lat="43.6965764" lon="11.1532823"><ele>195.33333333333334</ele><time>2026-04-27T15:36:05.737Z</time></trkpt><trkpt lat="43.6965242" lon="11.1533481"><ele>196.66666666666669</ele><time>2026-04-27T15:36:06.737Z</time></trkpt><trkpt lat="43.6964626" lon="11.1533987"><ele>198.0</ele><time>2026-04-27T15:36:07.735Z</time></trkpt><trkpt lat="43.696424" lon="11.1534834"><ele>199.33333333333331</ele><time>2026-04-27T15:36:08.734Z</time></trkpt><trkpt lat="43.6963693" lon="11.1535878"><ele>200.66666666666666</ele><time>2026-04-27T15:36:10.735Z</time></trkpt><trkpt lat="43.6963626" lon="11.1536779"><ele>202.0</ele><time>2026-04-27T15:36:11.739Z</time></trkpt><trkpt lat="43.6963641" lon="11.1538308"><ele>202.0</ele><time>2026-04-27T15:36:13.734Z</time></trkpt><trkpt lat="43.6963265" lon="11.1540153"><ele>202.0</ele><time>2026-04-27T15:36:15.744Z</time></trkpt><trkpt lat="43.6963284" lon="11.1541277"><ele>202.0</ele><time>2026-04-27T15:36:16.733Z</time></trkpt><trkpt lat="43.6962967" lon="11.1542225"><ele>202.0</ele><time>2026-04-27T15:36:17.736Z</time></trkpt><trkpt lat="43.6962293" lon="11.1542435"><ele>202.0</ele><time>2026-04-27T15:36:18.736Z</time></trkpt><trkpt lat="43.6961203" lon="11.1542983"><ele>202.49999999999997</ele><time>2026-04-27T15:36:20.739Z</time></trkpt><trkpt lat="43.6960473" lon="11.1542713"><ele>203.0</ele><time>2026-04-27T15:36:21.736Z</time></trkpt><trkpt lat="43.6959805" lon="11.1543232"><ele>203.5</ele><time>2026-04-27T15:36:23.738Z</time></trkpt><trkpt lat="43.6959066" lon="11.1543382"><ele>204.0</ele><time>2026-04-27T15:36:24.735Z</time></trkpt><trkpt lat="43.6958401" lon="11.1542966"><ele>204.49999999999997</ele><time>2026-04-27T15:36:32.736Z</time></trkpt><trkpt lat="43.6958022" lon="11.1541855"><ele>205.0</ele><time>2026-04-27T15:36:33.734Z</time></trkpt><trkpt lat="43.6957148" lon="11.1540346"><ele>203.8</ele><time>2026-04-27T15:36:35.736Z</time></trkpt><trkpt lat="43.6956529" lon="11.1538928"><ele>202.6</ele><time>2026-04-27T15:36:36.738Z</time></trkpt><trkpt lat="43.695604" lon="11.1537804"><ele>201.39999999999998</ele><time>2026-04-27T15:36:37.736Z</time></trkpt><trkpt lat="43.6955493" lon="11.1536772"><ele>200.2</ele><time>2026-04-27T15:36:38.736Z</time></trkpt><trkpt lat="43.695489" lon="11.1536193"><ele>199.0</ele><time>2026-04-27T15:36:39.734Z</time></trkpt><trkpt lat="43.695431" lon="11.1535487"><ele>198.99999999999997</ele><time>2026-04-27T15:36:40.734Z</time></trkpt><trkpt lat="43.6953729" lon="11.1535043"><ele>199.0</ele><time>2026-04-27T15:36:41.737Z</time></trkpt><trkpt lat="43.6953098" lon="11.1534458"><ele>199.0</ele><time>2026-04-27T15:36:42.737Z</time></trkpt><trkpt lat="43.6952538" lon="11.1533964"><ele>199.0</ele><time>2026-04-27T15:36:43.737Z</time></trkpt><trkpt lat="43.6951933" lon="11.153331"><ele>198.99999999999997</ele><time>2026-04-27T15:36:44.737Z</time></trkpt><trkpt lat="43.6951171" lon="11.1532593"><ele>199.0</ele><time>2026-04-27T15:36:45.735Z</time></trkpt><trkpt lat="43.6950529" lon="11.1531969"><ele>198.16666666666666</ele><time>2026-04-27T15:36:46.739Z</time></trkpt><trkpt lat="43.6949846" lon="11.1531236"><ele>197.33333333333331</ele><time>2026-04-27T15:36:47.736Z</time></trkpt><trkpt lat="43.6949287" lon="11.1530736"><ele>196.5</ele><time>2026-04-27T15:36:48.738Z</time></trkpt><trkpt lat="43.6948676" lon="11.1530252"><ele>195.66666666666669</ele><time>2026-04-27T15:36:49.734Z</time></trkpt><trkpt lat="43.6947758" lon="11.152917"><ele>194.83333333333334</ele><time>2026-04-27T15:36:51.736Z</time></trkpt><trkpt lat="43.6947035" lon="11.1529467"><ele>194.0</ele><time>2026-04-27T15:36:54.738Z</time></trkpt><trkpt lat="43.6946375" lon="11.1530142"><ele>194.0</ele><time>2026-04-27T15:36:57.735Z</time></trkpt><trkpt lat="43.6945662" lon="11.1530152"><ele>194.0</ele><time>2026-04-27T15:36:59.732Z</time></trkpt><trkpt lat="43.6944605" lon="11.1530299"><ele>194.0</ele><time>2026-04-27T15:37:01.735Z</time></trkpt><trkpt lat="43.6943538" lon="11.1530105"><ele>194.0</ele><time>2026-04-27T15:37:03.733Z</time></trkpt><trkpt lat="43.6942108" lon="11.152954"><ele>194.0</ele><time>2026-04-27T15:37:05.734Z</time></trkpt><trkpt lat="43.6941419" lon="11.1529152"><ele>195.7142857142857</ele><time>2026-04-27T15:37:06.738Z</time></trkpt><trkpt lat="43.6940622" lon="11.1528855"><ele>197.42857142857144</ele><time>2026-04-27T15:37:07.736Z</time></trkpt><trkpt lat="43.6939874" lon="11.1528697"><ele>199.14285714285714</ele><time>2026-04-27T15:37:08.739Z</time></trkpt><trkpt lat="43.6939169" lon="11.1528698"><ele>200.85714285714283</ele><time>2026-04-27T15:37:09.735Z</time></trkpt><trkpt lat="43.6938476" lon="11.15287"><ele>202.57142857142856</ele><time>2026-04-27T15:37:10.733Z</time></trkpt><trkpt lat="43.6937788" lon="11.1528803"><ele>204.28571428571428</ele><time>2026-04-27T15:37:11.733Z</time></trkpt><trkpt lat="43.6937076" lon="11.1528827"><ele>206.0</ele><time>2026-04-27T15:37:12.736Z</time></trkpt><trkpt lat="43.6936376" lon="11.1529063"><ele>205.33333333333334</ele><time>2026-04-27T15:37:13.736Z</time></trkpt><trkpt lat="43.6935611" lon="11.1528823"><ele>204.66666666666669</ele><time>2026-04-27T15:37:14.736Z</time></trkpt><trkpt lat="43.6934936" lon="11.1528719"><ele>204.0</ele><time>2026-04-27T15:37:15.731Z</time></trkpt><trkpt lat="43.6934182" lon="11.1528596"><ele>203.33333333333331</ele><time>2026-04-27T15:37:16.733Z</time></trkpt><trkpt lat="43.6933426" lon="11.1528243"><ele>202.66666666666666</ele><time>2026-04-27T15:37:17.737Z</time></trkpt><trkpt lat="43.6932737" lon="11.1527962"><ele>202.0</ele><time>2026-04-27T15:37:18.733Z</time></trkpt><trkpt lat="43.6932023" lon="11.152761"><ele>202.0</ele><time>2026-04-27T15:37:19.737Z</time></trkpt><trkpt lat="43.6931222" lon="11.152728"><ele>202.0</ele><time>2026-04-27T15:37:20.735Z</time></trkpt><trkpt lat="43.6930118" lon="11.1526829"><ele>202.0</ele><time>2026-04-27T15:37:22.737Z</time></trkpt><trkpt lat="43.692888" lon="11.1525698"><ele>202.0</ele><time>2026-04-27T15:37:24.737Z</time></trkpt><trkpt lat="43.6928304" lon="11.1524681"><ele>202.0</ele><time>2026-04-27T15:37:25.739Z</time></trkpt><trkpt lat="43.6927584" lon="11.1524095"><ele>202.0</ele><time>2026-04-27T15:37:26.736Z</time></trkpt><trkpt lat="43.6926837" lon="11.1523562"><ele>202.0</ele><time>2026-04-27T15:37:27.731Z</time></trkpt><trkpt lat="43.6926118" lon="11.1523194"><ele>202.0</ele><time>2026-04-27T15:37:28.738Z</time></trkpt><trkpt lat="43.6925244" lon="11.1523601"><ele>202.0</ele><time>2026-04-27T15:37:29.736Z</time></trkpt><trkpt lat="43.6924399" lon="11.1523696"><ele>202.0</ele><time>2026-04-27T15:37:30.734Z</time></trkpt><trkpt lat="43.6923023" lon="11.1523586"><ele>200.83333333333331</ele><time>2026-04-27T15:37:32.734Z</time></trkpt><trkpt lat="43.6922329" lon="11.1523739"><ele>199.66666666666666</ele><time>2026-04-27T15:37:33.734Z</time></trkpt><trkpt lat="43.692166" lon="11.1523964"><ele>198.5</ele><time>2026-04-27T15:37:34.735Z</time></trkpt><trkpt lat="43.6920752" lon="11.1524412"><ele>197.33333333333331</ele><time>2026-04-27T15:37:35.736Z</time></trkpt><trkpt lat="43.6919918" lon="11.152454"><ele>196.16666666666666</ele><time>2026-04-27T15:37:36.738Z</time></trkpt><trkpt lat="43.6919172" lon="11.1524479"><ele>195.0</ele><time>2026-04-27T15:37:37.733Z</time></trkpt><trkpt lat="43.6918353" lon="11.1524626"><ele>193.83333333333334</ele><time>2026-04-27T15:37:38.737Z</time></trkpt><trkpt lat="43.6917227" lon="11.1524741"><ele>192.66666666666666</ele><time>2026-04-27T15:37:40.736Z</time></trkpt><trkpt lat="43.6916635" lon="11.1524429"><ele>191.5</ele><time>2026-04-27T15:37:41.736Z</time></trkpt><trkpt lat="43.6915959" lon="11.1524111"><ele>190.33333333333331</ele><time>2026-04-27T15:37:44.734Z</time></trkpt><trkpt lat="43.6915227" lon="11.1523583"><ele>189.16666666666666</ele><time>2026-04-27T15:37:47.737Z</time></trkpt><trkpt lat="43.6914627" lon="11.1523178"><ele>188.0</ele><time>2026-04-27T15:37:54.714Z</time></trkpt><trkpt lat="43.6914197" lon="11.1522324"><ele>188.0</ele><time>2026-04-27T15:37:57.659Z</time></trkpt><trkpt lat="43.6913729" lon="11.1521563"><ele>188.0</ele><time>2026-04-27T15:38:00.734Z</time></trkpt><trkpt lat="43.691335" lon="11.1520806"><ele>188.0</ele><time>2026-04-27T15:38:03.677Z</time></trkpt><trkpt lat="43.6913146" lon="11.1519721"><ele>188.0</ele><time>2026-04-27T15:38:06.734Z</time></trkpt><trkpt lat="43.6913396" lon="11.1518883"><ele>188.0</ele><time>2026-04-27T15:38:09.736Z</time></trkpt><trkpt lat="43.6913513" lon="11.1517915"><ele>188.0</ele><time>2026-04-27T15:38:10.733Z</time></trkpt><trkpt lat="43.6914258" lon="11.1517479"><ele>188.0</ele><time>2026-04-27T15:38:13.733Z</time></trkpt><trkpt lat="43.6914854" lon="11.1517813"><ele>188.0</ele><time>2026-04-27T15:38:16.736Z</time></trkpt><trkpt lat="43.6915617" lon="11.151689"><ele>188.0</ele><time>2026-04-27T15:38:18.735Z</time></trkpt><trkpt lat="43.6915666" lon="11.1515592"><ele>188.0</ele><time>2026-04-27T15:38:20.737Z</time></trkpt><trkpt lat="43.6915587" lon="11.1514536"><ele>188.0</ele><time>2026-04-27T15:38:22.737Z</time></trkpt><trkpt lat="43.6915446" lon="11.1513677"><ele>188.0</ele><time>2026-04-27T15:38:25.733Z</time></trkpt><trkpt lat="43.6915248" lon="11.1512504"><ele>188.0</ele><time>2026-04-27T15:38:28.734Z</time></trkpt><trkpt lat="43.6914879" lon="11.1511684"><ele>188.0</ele><time>2026-04-27T15:38:32.735Z</time></trkpt><trkpt lat="43.6914081" lon="11.1511338"><ele>188.0</ele><time>2026-04-27T15:38:38.732Z</time></trkpt><trkpt lat="43.6913279" lon="11.1511342"><ele>188.0</ele><time>2026-04-27T15:38:41.737Z</time></trkpt><trkpt lat="43.6912601" lon="11.1511334"><ele>188.0</ele><time>2026-04-27T15:38:43.735Z</time></trkpt><trkpt lat="43.6911959" lon="11.1511302"><ele>188.0</ele><time>2026-04-27T15:38:45.736Z</time></trkpt><trkpt lat="43.6911332" lon="11.1511114"><ele>188.0</ele><time>2026-04-27T15:38:47.733Z</time></trkpt><trkpt lat="43.6910747" lon="11.1510786"><ele>188.0</ele><time>2026-04-27T15:38:50.732Z</time></trkpt><trkpt lat="43.6909378" lon="11.1510575"><ele>183.60000000000002</ele><time>2026-04-27T15:39:03.739Z</time></trkpt><trkpt lat="43.6908515" lon="11.1510306"><ele>179.20000000000002</ele><time>2026-04-27T15:39:05.735Z</time></trkpt><trkpt lat="43.690778" lon="11.1510168"><ele>174.8</ele><time>2026-04-27T15:39:08.734Z</time></trkpt><trkpt lat="43.6907037" lon="11.1510166"><ele>170.4</ele><time>2026-04-27T15:39:14.733Z</time></trkpt><trkpt lat="43.6907534" lon="11.1510773"><ele>166.0</ele><time>2026-04-27T15:39:31.731Z</time></trkpt><trkpt lat="43.6909255" lon="11.1510231"><ele>166.0</ele><time>2026-04-27T15:39:35.732Z</time></trkpt><trkpt lat="43.6910325" lon="11.1510396"><ele>166.0</ele><time>2026-04-27T15:39:37.744Z</time></trkpt><trkpt lat="43.6911379" lon="11.1510681"><ele>166.0</ele><time>2026-04-27T15:39:39.735Z</time></trkpt><trkpt lat="43.6912033" lon="11.1511043"><ele>166.0</ele><time>2026-04-27T15:39:40.736Z</time></trkpt><trkpt lat="43.6913493" lon="11.1511429"><ele>166.0</ele><time>2026-04-27T15:39:42.735Z</time></trkpt><trkpt lat="43.6914464" lon="11.1511523"><ele>169.66666666666669</ele><time>2026-04-27T15:39:44.734Z</time></trkpt><trkpt lat="43.6915325" lon="11.1511619"><ele>173.33333333333334</ele><time>2026-04-27T15:39:46.735Z</time></trkpt><trkpt lat="43.6915423" lon="11.1512622"><ele>177.0</ele><time>2026-04-27T15:39:50.734Z</time></trkpt><trkpt lat="43.691549" lon="11.1513541"><ele>180.66666666666666</ele><time>2026-04-27T15:39:53.734Z</time></trkpt><trkpt lat="43.6915595" lon="11.1514588"><ele>184.33333333333331</ele><time>2026-04-27T15:39:57.735Z</time></trkpt><trkpt lat="43.691584" lon="11.1515655"><ele>188.0</ele><time>2026-04-27T15:39:59.734Z</time></trkpt><trkpt lat="43.6915554" lon="11.1516929"><ele>188.0</ele><time>2026-04-27T15:40:01.734Z</time></trkpt><trkpt lat="43.6915357" lon="11.1517812"><ele>188.0</ele><time>2026-04-27T15:40:03.738Z</time></trkpt><trkpt lat="43.6914817" lon="11.1518345"><ele>188.0</ele><time>2026-04-27T15:40:05.734Z</time></trkpt><trkpt lat="43.6914387" lon="11.1519332"><ele>188.0</ele><time>2026-04-27T15:40:09.739Z</time></trkpt><trkpt lat="43.6914183" lon="11.1520234"><ele>188.0</ele><time>2026-04-27T15:40:36.731Z</time></trkpt><trkpt lat="43.6914079" lon="11.1521581"><ele>188.0</ele><time>2026-04-27T15:40:39.735Z</time></trkpt><trkpt lat="43.6914749" lon="11.1521772"><ele>188.0</ele><time>2026-04-27T15:40:44.738Z</time></trkpt><trkpt lat="43.6914993" lon="11.1520082"><ele>188.0</ele><time>2026-04-27T15:40:48.737Z</time></trkpt><trkpt lat="43.6915217" lon="11.1519125"><ele>188.0</ele><time>2026-04-27T15:40:52.735Z</time></trkpt><trkpt lat="43.6915537" lon="11.1518309"><ele>188.0</ele><time>2026-04-27T15:41:08.734Z</time></trkpt><trkpt lat="43.6915666" lon="11.151739"><ele>188.0</ele><time>2026-04-27T15:41:14.733Z</time></trkpt><trkpt lat="43.6915713" lon="11.1518749"><ele>188.0</ele><time>2026-04-27T15:42:12.732Z</time></trkpt><trkpt lat="43.691554" lon="11.1519589"><ele>188.0</ele><time>2026-04-27T15:42:13.733Z</time></trkpt><trkpt lat="43.6915319" lon="11.1520996"><ele>188.0</ele><time>2026-04-27T15:42:15.735Z</time></trkpt><trkpt lat="43.6915141" lon="11.152217"><ele>188.0</ele><time>2026-04-27T15:42:17.735Z</time></trkpt><trkpt lat="43.6915166" lon="11.1523115"><ele>188.0</ele><time>2026-04-27T15:42:19.732Z</time></trkpt><trkpt lat="43.6915177" lon="11.1523997"><ele>188.0</ele><time>2026-04-27T15:42:41.732Z</time></trkpt><trkpt lat="43.6915813" lon="11.1524189"><ele>188.0</ele><time>2026-04-27T15:42:43.738Z</time></trkpt><trkpt lat="43.6916599" lon="11.1524422"><ele>187.60000000000002</ele><time>2026-04-27T15:42:46.732Z</time></trkpt><trkpt lat="43.6917534" lon="11.1524875"><ele>187.20000000000002</ele><time>2026-04-27T15:42:49.733Z</time></trkpt><trkpt lat="43.6918469" lon="11.1525204"><ele>186.8</ele><time>2026-04-27T15:42:50.738Z</time></trkpt><trkpt lat="43.6919617" lon="11.1525128"><ele>186.4</ele><time>2026-04-27T15:42:55.731Z</time></trkpt><trkpt lat="43.6920327" lon="11.1524933"><ele>186.0</ele><time>2026-04-27T15:42:58.736Z</time></trkpt><trkpt lat="43.692113" lon="11.1524593"><ele>187.8</ele><time>2026-04-27T15:43:01.734Z</time></trkpt><trkpt lat="43.6922274" lon="11.152417"><ele>189.60000000000002</ele><time>2026-04-27T15:43:28.732Z</time></trkpt><trkpt lat="43.6923294" lon="11.1524372"><ele>191.4</ele><time>2026-04-27T15:43:30.729Z</time></trkpt><trkpt lat="43.6924345" lon="11.1524189"><ele>193.2</ele><time>2026-04-27T15:43:32.735Z</time></trkpt><trkpt lat="43.6925353" lon="11.152396"><ele>195.0</ele><time>2026-04-27T15:43:34.735Z</time></trkpt><trkpt lat="43.6925981" lon="11.1524121"><ele>195.0</ele><time>2026-04-27T15:43:35.732Z</time></trkpt><trkpt lat="43.6926818" lon="11.1524327"><ele>195.0</ele><time>2026-04-27T15:43:37.731Z</time></trkpt><trkpt lat="43.6927533" lon="11.1524513"><ele>195.0</ele><time>2026-04-27T15:43:39.728Z</time></trkpt><trkpt lat="43.6928293" lon="11.1524572"><ele>195.0</ele><time>2026-04-27T15:43:42.73Z</time></trkpt><trkpt lat="43.6928851" lon="11.1525148"><ele>195.0</ele><time>2026-04-27T15:43:44.734Z</time></trkpt><trkpt lat="43.6929666" lon="11.152586"><ele>195.0</ele><time>2026-04-27T15:43:46.73Z</time></trkpt><trkpt lat="43.6930684" lon="11.1526382"><ele>196.4</ele><time>2026-04-27T15:43:48.734Z</time></trkpt><trkpt lat="43.6931794" lon="11.1526881"><ele>197.8</ele><time>2026-04-27T15:43:50.731Z</time></trkpt><trkpt lat="43.6932464" lon="11.1527996"><ele>199.2</ele><time>2026-04-27T15:43:52.734Z</time></trkpt><trkpt lat="43.6933183" lon="11.1528038"><ele>200.6</ele><time>2026-04-27T15:43:53.735Z</time></trkpt><trkpt lat="43.6934227" lon="11.152836"><ele>202.0</ele><time>2026-04-27T15:43:55.731Z</time></trkpt><trkpt lat="43.6935311" lon="11.1528692"><ele>202.66666666666666</ele><time>2026-04-27T15:43:57.742Z</time></trkpt><trkpt lat="43.6936201" lon="11.152886"><ele>203.33333333333331</ele><time>2026-04-27T15:43:59.73Z</time></trkpt><trkpt lat="43.6937221" lon="11.1529075"><ele>204.0</ele><time>2026-04-27T15:44:01.731Z</time></trkpt><trkpt lat="43.6938129" lon="11.1528933"><ele>204.66666666666669</ele><time>2026-04-27T15:44:03.736Z</time></trkpt><trkpt lat="43.6939015" lon="11.1528901"><ele>205.33333333333334</ele><time>2026-04-27T15:44:05.734Z</time></trkpt><trkpt lat="43.6939727" lon="11.152913"><ele>206.0</ele><time>2026-04-27T15:44:07.74Z</time></trkpt><trkpt lat="43.6940638" lon="11.1528975"><ele>206.0</ele><time>2026-04-27T15:44:10.731Z</time></trkpt><trkpt lat="43.6941498" lon="11.1529347"><ele>206.0</ele><time>2026-04-27T15:45:40.734Z</time></trkpt><trkpt lat="43.6942527" lon="11.1529777"><ele>206.0</ele><time>2026-04-27T15:45:42.736Z</time></trkpt><trkpt lat="43.6943173" lon="11.1530053"><ele>206.0</ele><time>2026-04-27T15:45:43.734Z</time></trkpt><trkpt lat="43.6944294" lon="11.1530434"><ele>206.0</ele><time>2026-04-27T15:45:45.734Z</time></trkpt><trkpt lat="43.6945178" lon="11.1530545"><ele>204.00000000000003</ele><time>2026-04-27T15:45:47.732Z</time></trkpt><trkpt lat="43.6945899" lon="11.1530472"><ele>202.0</ele><time>2026-04-27T15:45:49.733Z</time></trkpt><trkpt lat="43.6946642" lon="11.152973"><ele>200.0</ele><time>2026-04-27T15:45:52.731Z</time></trkpt><trkpt lat="43.6947189" lon="11.1529234"><ele>198.0</ele><time>2026-04-27T15:45:55.731Z</time></trkpt><trkpt lat="43.6947339" lon="11.1528306"><ele>196.00000000000003</ele><time>2026-04-27T15:45:58.73Z</time></trkpt><trkpt lat="43.6946938" lon="11.1527038"><ele>194.0</ele><time>2026-04-27T15:46:00.734Z</time></trkpt><trkpt lat="43.6946612" lon="11.1525895"><ele>194.0</ele><time>2026-04-27T15:46:02.731Z</time></trkpt><trkpt lat="43.6946091" lon="11.1524343"><ele>194.0</ele><time>2026-04-27T15:46:04.731Z</time></trkpt><trkpt lat="43.6945795" lon="11.1523558"><ele>194.0</ele><time>2026-04-27T15:46:05.736Z</time></trkpt><trkpt lat="43.6945235" lon="11.1522273"><ele>194.0</ele><time>2026-04-27T15:46:07.735Z</time></trkpt><trkpt lat="43.6945022" lon="11.1521306"><ele>194.0</ele><time>2026-04-27T15:46:08.734Z</time></trkpt><trkpt lat="43.6944873" lon="11.1520023"><ele>193.0</ele><time>2026-04-27T15:46:10.734Z</time></trkpt><trkpt lat="43.69445" lon="11.1518916"><ele>192.0</ele><time>2026-04-27T15:46:12.734Z</time></trkpt><trkpt lat="43.6944001" lon="11.1517519"><ele>191.0</ele><time>2026-04-27T15:46:14.729Z</time></trkpt><trkpt lat="43.6943671" lon="11.151583"><ele>190.0</ele><time>2026-04-27T15:46:16.738Z</time></trkpt><trkpt lat="43.6943388" lon="11.1514069"><ele>193.6</ele><time>2026-04-27T15:46:18.734Z</time></trkpt><trkpt lat="43.694293" lon="11.1512741"><ele>197.2</ele><time>2026-04-27T15:46:20.733Z</time></trkpt><trkpt lat="43.6942254" lon="11.1511731"><ele>200.8</ele><time>2026-04-27T15:46:22.73Z</time></trkpt><trkpt lat="43.6941598" lon="11.1510563"><ele>204.4</ele><time>2026-04-27T15:46:24.739Z</time></trkpt><trkpt lat="43.694111" lon="11.1509641"><ele>208.0</ele><time>2026-04-27T15:46:26.732Z</time></trkpt><trkpt lat="43.6940674" lon="11.1508292"><ele>206.99999999999997</ele><time>2026-04-27T15:46:28.732Z</time></trkpt><trkpt lat="43.6940115" lon="11.1506819"><ele>206.0</ele><time>2026-04-27T15:46:30.736Z</time></trkpt><trkpt lat="43.6939754" lon="11.1506017"><ele>205.0</ele><time>2026-04-27T15:46:31.733Z</time></trkpt><trkpt lat="43.6939465" lon="11.1505042"><ele>204.0</ele><time>2026-04-27T15:46:32.74Z</time></trkpt><trkpt lat="43.6939231" lon="11.1504194"><ele>202.99999999999997</ele><time>2026-04-27T15:46:33.736Z</time></trkpt><trkpt lat="43.6939028" lon="11.1503169"><ele>202.0</ele><time>2026-04-27T15:46:34.733Z</time></trkpt><trkpt lat="43.6938983" lon="11.1502041"><ele>201.99999999999997</ele><time>2026-04-27T15:46:35.735Z</time></trkpt><trkpt lat="43.6938901" lon="11.1500738"><ele>202.0</ele><time>2026-04-27T15:46:36.734Z</time></trkpt><trkpt lat="43.6938721" lon="11.1499385"><ele>202.0</ele><time>2026-04-27T15:46:37.735Z</time></trkpt><trkpt lat="43.693857" lon="11.149814"><ele>202.0</ele><time>2026-04-27T15:46:38.735Z</time></trkpt><trkpt lat="43.6938387" lon="11.1497121"><ele>201.99999999999997</ele><time>2026-04-27T15:46:39.734Z</time></trkpt><trkpt lat="43.6938272" lon="11.1495975"><ele>202.0</ele><time>2026-04-27T15:46:40.737Z</time></trkpt><trkpt lat="43.6938116" lon="11.149493"><ele>200.14285714285714</ele><time>2026-04-27T15:46:41.735Z</time></trkpt><trkpt lat="43.6938066" lon="11.1494015"><ele>198.28571428571428</ele><time>2026-04-27T15:46:42.731Z</time></trkpt><trkpt lat="43.6938122" lon="11.1492844"><ele>196.42857142857144</ele><time>2026-04-27T15:46:43.735Z</time></trkpt><trkpt lat="43.6938054" lon="11.1491933"><ele>194.57142857142856</ele><time>2026-04-27T15:46:47.735Z</time></trkpt><trkpt lat="43.6938785" lon="11.1491588"><ele>192.71428571428572</ele><time>2026-04-27T15:49:34.73Z</time></trkpt><trkpt lat="43.693805" lon="11.1491532"><ele>190.85714285714286</ele><time>2026-04-27T15:49:42.733Z</time></trkpt><trkpt lat="43.6937718" lon="11.1490765"><ele>189.0</ele><time>2026-04-27T15:49:44.729Z</time></trkpt><trkpt lat="43.6937504" lon="11.148964"><ele>187.66666666666666</ele><time>2026-04-27T15:49:45.735Z</time></trkpt><trkpt lat="43.6937409" lon="11.1488638"><ele>186.33333333333334</ele><time>2026-04-27T15:49:46.742Z</time></trkpt><trkpt lat="43.6937228" lon="11.1487609"><ele>185.0</ele><time>2026-04-27T15:49:47.729Z</time></trkpt><trkpt lat="43.6936832" lon="11.1486259"><ele>183.66666666666669</ele><time>2026-04-27T15:49:48.731Z</time></trkpt><trkpt lat="43.6936783" lon="11.1484955"><ele>182.33333333333334</ele><time>2026-04-27T15:49:49.734Z</time></trkpt><trkpt lat="43.6936672" lon="11.1483638"><ele>181.0</ele><time>2026-04-27T15:49:50.73Z</time></trkpt><trkpt lat="43.6936492" lon="11.1482386"><ele>180.83333333333334</ele><time>2026-04-27T15:49:51.732Z</time></trkpt><trkpt lat="43.6936291" lon="11.1481346"><ele>180.66666666666669</ele><time>2026-04-27T15:49:52.736Z</time></trkpt><trkpt lat="43.6936112" lon="11.1480106"><ele>180.5</ele><time>2026-04-27T15:49:53.735Z</time></trkpt><trkpt lat="43.6935951" lon="11.1478922"><ele>180.33333333333334</ele><time>2026-04-27T15:49:54.73Z</time></trkpt><trkpt lat="43.6935784" lon="11.1477713"><ele>180.16666666666666</ele><time>2026-04-27T15:49:55.733Z</time></trkpt><trkpt lat="43.6935704" lon="11.147663"><ele>180.0</ele><time>2026-04-27T15:49:56.735Z</time></trkpt><trkpt lat="43.6935658" lon="11.1475587"><ele>181.4</ele><time>2026-04-27T15:49:57.734Z</time></trkpt><trkpt lat="43.6935539" lon="11.1474563"><ele>182.8</ele><time>2026-04-27T15:49:58.732Z</time></trkpt><trkpt lat="43.6935231" lon="11.1472881"><ele>184.2</ele><time>2026-04-27T15:50:00.73Z</time></trkpt><trkpt lat="43.6934981" lon="11.1471261"><ele>185.6</ele><time>2026-04-27T15:50:02.734Z</time></trkpt><trkpt lat="43.6934903" lon="11.1470269"><ele>187.0</ele><time>2026-04-27T15:50:03.739Z</time></trkpt><trkpt lat="43.6934636" lon="11.1469111"><ele>187.0</ele><time>2026-04-27T15:50:04.73Z</time></trkpt><trkpt lat="43.6934487" lon="11.1467887"><ele>187.0</ele><time>2026-04-27T15:50:05.735Z</time></trkpt><trkpt lat="43.6933736" lon="11.1465712"><ele>187.0</ele><time>2026-04-27T15:50:08.732Z</time></trkpt><trkpt lat="43.693345" lon="11.1464859"><ele>187.0</ele><time>2026-04-27T15:50:10.732Z</time></trkpt><trkpt lat="43.6933005" lon="11.1463784"><ele>187.0</ele><time>2026-04-27T15:50:13.735Z</time></trkpt><trkpt lat="43.6932283" lon="11.1462708"><ele>186.33333333333334</ele><time>2026-04-27T15:50:15.732Z</time></trkpt><trkpt lat="43.6931861" lon="11.1461798"><ele>185.66666666666669</ele><time>2026-04-27T15:50:16.732Z</time></trkpt><trkpt lat="43.6931473" lon="11.1461098"><ele>185.0</ele><time>2026-04-27T15:50:17.73Z</time></trkpt><trkpt lat="43.6930943" lon="11.1460198"><ele>184.33333333333334</ele><time>2026-04-27T15:50:18.732Z</time></trkpt><trkpt lat="43.6930384" lon="11.1459311"><ele>183.66666666666666</ele><time>2026-04-27T15:50:19.735Z</time></trkpt><trkpt lat="43.6930002" lon="11.1458462"><ele>183.0</ele><time>2026-04-27T15:50:20.731Z</time></trkpt><trkpt lat="43.6929426" lon="11.1457522"><ele>182.66666666666666</ele><time>2026-04-27T15:50:21.729Z</time></trkpt><trkpt lat="43.6928705" lon="11.1456637"><ele>182.33333333333334</ele><time>2026-04-27T15:50:22.733Z</time></trkpt><trkpt lat="43.6928074" lon="11.1455683"><ele>182.0</ele><time>2026-04-27T15:50:23.734Z</time></trkpt><trkpt lat="43.6927472" lon="11.145476"><ele>181.66666666666669</ele><time>2026-04-27T15:50:24.732Z</time></trkpt><trkpt lat="43.6927019" lon="11.1453798"><ele>181.33333333333334</ele><time>2026-04-27T15:50:25.73Z</time></trkpt><trkpt lat="43.69265" lon="11.1452958"><ele>181.0</ele><time>2026-04-27T15:50:26.733Z</time></trkpt><trkpt lat="43.6925968" lon="11.1452021"><ele>179.0</ele><time>2026-04-27T15:50:27.735Z</time></trkpt><trkpt lat="43.6925449" lon="11.1451016"><ele>177.0</ele><time>2026-04-27T15:50:28.732Z</time></trkpt><trkpt lat="43.6924999" lon="11.145013"><ele>175.0</ele><time>2026-04-27T15:50:29.732Z</time></trkpt><trkpt lat="43.692485" lon="11.1448899"><ele>173.0</ele><time>2026-04-27T15:50:30.732Z</time></trkpt><trkpt lat="43.6924141" lon="11.1447894"><ele>171.0</ele><time>2026-04-27T15:50:31.732Z</time></trkpt><trkpt lat="43.692357" lon="11.1446842"><ele>170.5</ele><time>2026-04-27T15:50:32.736Z</time></trkpt><trkpt lat="43.6923156" lon="11.1445906"><ele>170.0</ele><time>2026-04-27T15:50:33.729Z</time></trkpt><trkpt lat="43.6922839" lon="11.1444752"><ele>169.5</ele><time>2026-04-27T15:50:34.734Z</time></trkpt><trkpt lat="43.6922368" lon="11.1444037"><ele>169.0</ele><time>2026-04-27T15:50:35.732Z</time></trkpt><trkpt lat="43.692207" lon="11.144325"><ele>168.5</ele><time>2026-04-27T15:50:36.734Z</time></trkpt><trkpt lat="43.6921762" lon="11.1442089"><ele>168.0</ele><time>2026-04-27T15:50:39.734Z</time></trkpt><trkpt lat="43.6921399" lon="11.1441309"><ele>166.16666666666666</ele><time>2026-04-27T15:50:41.734Z</time></trkpt><trkpt lat="43.6920906" lon="11.1439922"><ele>164.33333333333334</ele><time>2026-04-27T15:50:43.731Z</time></trkpt><trkpt lat="43.6920551" lon="11.1439071"><ele>162.5</ele><time>2026-04-27T15:50:44.729Z</time></trkpt><trkpt lat="43.6920219" lon="11.1438176"><ele>160.66666666666669</ele><time>2026-04-27T15:50:45.728Z</time></trkpt><trkpt lat="43.6919899" lon="11.1437413"><ele>158.83333333333334</ele><time>2026-04-27T15:50:46.736Z</time></trkpt><trkpt lat="43.6919269" lon="11.1436032"><ele>157.0</ele><time>2026-04-27T15:50:48.733Z</time></trkpt><trkpt lat="43.691882" lon="11.1435382"><ele>157.0</ele><time>2026-04-27T15:50:49.733Z</time></trkpt><trkpt lat="43.691821" lon="11.1434325"><ele>157.0</ele><time>2026-04-27T15:50:51.733Z</time></trkpt><trkpt lat="43.6918337" lon="11.1433261"><ele>157.0</ele><time>2026-04-27T15:50:54.732Z</time></trkpt><trkpt lat="43.69193" lon="11.1432928"><ele>157.0</ele><time>2026-04-27T15:50:58.734Z</time></trkpt><trkpt lat="43.692063" lon="11.1432901"><ele>157.0</ele><time>2026-04-27T15:51:01.728Z</time></trkpt><trkpt lat="43.6921994" lon="11.1434025"><ele>157.0</ele><time>2026-04-27T15:51:04.733Z</time></trkpt><trkpt lat="43.6923062" lon="11.1434553"><ele>157.0</ele><time>2026-04-27T15:51:06.736Z</time></trkpt><trkpt lat="43.6923824" lon="11.1434404"><ele>157.0</ele><time>2026-04-27T15:51:08.733Z</time></trkpt><trkpt lat="43.692462" lon="11.1434139"><ele>157.0</ele><time>2026-04-27T15:51:10.731Z</time></trkpt><trkpt lat="43.6926891" lon="11.1434787"><ele>156.99999999999997</ele><time>2026-04-27T15:51:16.729Z</time></trkpt><trkpt lat="43.6927565" lon="11.1434804"><ele>157.0</ele><time>2026-04-27T15:51:19.733Z</time></trkpt><trkpt lat="43.6928373" lon="11.1435379"><ele>157.0</ele><time>2026-04-27T15:51:21.731Z</time></trkpt><trkpt lat="43.6929032" lon="11.1435484"><ele>157.0</ele><time>2026-04-27T15:51:24.734Z</time></trkpt><trkpt lat="43.692961" lon="11.1435852"><ele>157.0</ele><time>2026-04-27T15:51:27.732Z</time></trkpt><trkpt lat="43.6930317" lon="11.1436261"><ele>156.99999999999997</ele><time>2026-04-27T15:51:29.737Z</time></trkpt><trkpt lat="43.6931031" lon="11.1436554"><ele>157.0</ele><time>2026-04-27T15:51:32.733Z</time></trkpt><trkpt lat="43.6931608" lon="11.1435933"><ele>157.0</ele><time>2026-04-27T15:51:37.732Z</time></trkpt><trkpt lat="43.6931764" lon="11.1434826"><ele>157.0</ele><time>2026-04-27T15:51:40.732Z</time></trkpt><trkpt lat="43.6931575" lon="11.1433117"><ele>157.0</ele><time>2026-04-27T15:51:41.731Z</time></trkpt><trkpt lat="43.6931058" lon="11.1432092"><ele>157.0</ele><time>2026-04-27T15:51:44.733Z</time></trkpt><trkpt lat="43.6930052" lon="11.1431779"><ele>157.0</ele><time>2026-04-27T15:51:47.74Z</time></trkpt><trkpt lat="43.6929243" lon="11.1431807"><ele>156.99999999999997</ele><time>2026-04-27T15:51:49.73Z</time></trkpt><trkpt lat="43.6928441" lon="11.1431739"><ele>157.0</ele><time>2026-04-27T15:51:52.734Z</time></trkpt><trkpt lat="43.692781" lon="11.1431372"><ele>157.0</ele><time>2026-04-27T15:51:57.728Z</time></trkpt><trkpt lat="43.6927113" lon="11.1432004"><ele>157.0</ele><time>2026-04-27T15:52:02.73Z</time></trkpt><trkpt lat="43.6926505" lon="11.1432631"><ele>157.0</ele><time>2026-04-27T15:52:05.73Z</time></trkpt><trkpt lat="43.6926236" lon="11.1433531"><ele>156.99999999999997</ele><time>2026-04-27T15:52:07.734Z</time></trkpt><trkpt lat="43.6925758" lon="11.1434126"><ele>157.0</ele><time>2026-04-27T15:52:09.735Z</time></trkpt><trkpt lat="43.6925043" lon="11.143421"><ele>157.0</ele><time>2026-04-27T15:52:11.733Z</time></trkpt><trkpt lat="43.6924151" lon="11.143438"><ele>157.0</ele><time>2026-04-27T15:52:13.729Z</time></trkpt><trkpt lat="43.6923089" lon="11.143434"><ele>157.0</ele><time>2026-04-27T15:52:16.731Z</time></trkpt><trkpt lat="43.6922345" lon="11.1434024"><ele>157.0</ele><time>2026-04-27T15:52:18.729Z</time></trkpt><trkpt lat="43.6921608" lon="11.1433733"><ele>157.0</ele><time>2026-04-27T15:52:20.735Z</time></trkpt><trkpt lat="43.6922052" lon="11.143311"><ele>157.0</ele><time>2026-04-27T15:52:25.735Z</time></trkpt><trkpt lat="43.6922923" lon="11.14327"><ele>154.6</ele><time>2026-04-27T15:52:27.733Z</time></trkpt><trkpt lat="43.6923715" lon="11.1431414"><ele>152.2</ele><time>2026-04-27T15:52:29.735Z</time></trkpt><trkpt lat="43.692458" lon="11.1430201"><ele>149.8</ele><time>2026-04-27T15:52:31.738Z</time></trkpt><trkpt lat="43.69251" lon="11.1429438"><ele>147.4</ele><time>2026-04-27T15:52:32.732Z</time></trkpt><trkpt lat="43.6925674" lon="11.1428682"><ele>145.0</ele><time>2026-04-27T15:52:33.73Z</time></trkpt><trkpt lat="43.6926181" lon="11.1428029"><ele>145.0</ele><time>2026-04-27T15:52:34.729Z</time></trkpt><trkpt lat="43.6927263" lon="11.1427495"><ele>145.0</ele><time>2026-04-27T15:52:36.735Z</time></trkpt><trkpt lat="43.6928246" lon="11.142773"><ele>145.0</ele><time>2026-04-27T15:52:38.728Z</time></trkpt><trkpt lat="43.6929022" lon="11.1427752"><ele>145.0</ele><time>2026-04-27T15:52:41.731Z</time></trkpt><trkpt lat="43.6929815" lon="11.1427956"><ele>145.0</ele><time>2026-04-27T15:52:44.732Z</time></trkpt><trkpt lat="43.6930566" lon="11.142816"><ele>145.0</ele><time>2026-04-27T15:52:46.734Z</time></trkpt><trkpt lat="43.6931367" lon="11.1428529"><ele>144.16666666666669</ele><time>2026-04-27T15:52:48.733Z</time></trkpt><trkpt lat="43.6932142" lon="11.1428626"><ele>143.33333333333334</ele><time>2026-04-27T15:52:49.734Z</time></trkpt><trkpt lat="43.6933334" lon="11.1428466"><ele>142.5</ele><time>2026-04-27T15:52:51.734Z</time></trkpt><trkpt lat="43.6934108" lon="11.1428536"><ele>141.66666666666666</ele><time>2026-04-27T15:52:52.736Z</time></trkpt><trkpt lat="43.6934782" lon="11.1428067"><ele>140.83333333333331</ele><time>2026-04-27T15:52:53.729Z</time></trkpt><trkpt lat="43.6935517" lon="11.1427995"><ele>140.0</ele><time>2026-04-27T15:52:54.729Z</time></trkpt><trkpt lat="43.6936651" lon="11.1427765"><ele>138.4</ele><time>2026-04-27T15:52:56.731Z</time></trkpt><trkpt lat="43.693747" lon="11.1427838"><ele>136.8</ele><time>2026-04-27T15:52:57.731Z</time></trkpt><trkpt lat="43.6938614" lon="11.1427718"><ele>135.2</ele><time>2026-04-27T15:52:59.738Z</time></trkpt><trkpt lat="43.6939282" lon="11.1428078"><ele>133.6</ele><time>2026-04-27T15:53:00.734Z</time></trkpt><trkpt lat="43.6939991" lon="11.1427767"><ele>132.0</ele><time>2026-04-27T15:53:10.621Z</time></trkpt><trkpt lat="43.6940756" lon="11.1426491"><ele>132.0</ele><time>2026-04-27T15:53:16.727Z</time></trkpt><trkpt lat="43.6941342" lon="11.1425872"><ele>132.0</ele><time>2026-04-27T15:53:17.736Z</time></trkpt><trkpt lat="43.694188" lon="11.1425242"><ele>132.0</ele><time>2026-04-27T15:53:18.728Z</time></trkpt><trkpt lat="43.6942399" lon="11.14247"><ele>132.0</ele><time>2026-04-27T15:53:19.73Z</time></trkpt><trkpt lat="43.6942907" lon="11.1424123"><ele>132.0</ele><time>2026-04-27T15:53:20.731Z</time></trkpt><trkpt lat="43.6943718" lon="11.1423307"><ele>132.0</ele><time>2026-04-27T15:53:22.731Z</time></trkpt><trkpt lat="43.6944563" lon="11.1422844"><ele>128.79999999999998</ele><time>2026-04-27T15:53:24.732Z</time></trkpt><trkpt lat="43.6945471" lon="11.1422137"><ele>125.6</ele><time>2026-04-27T15:53:26.73Z</time></trkpt><trkpt lat="43.6946343" lon="11.1421198"><ele>122.39999999999999</ele><time>2026-04-27T15:53:28.733Z</time></trkpt><trkpt lat="43.6946924" lon="11.1420394"><ele>119.19999999999999</ele><time>2026-04-27T15:53:30.736Z</time></trkpt><trkpt lat="43.6947748" lon="11.1420468"><ele>116.0</ele><time>2026-04-27T15:53:32.733Z</time></trkpt><trkpt lat="43.6948373" lon="11.1420962"><ele>115.99999999999999</ele><time>2026-04-27T15:53:34.735Z</time></trkpt><trkpt lat="43.6949094" lon="11.1421925"><ele>116.0</ele><time>2026-04-27T15:53:36.728Z</time></trkpt><trkpt lat="43.6949714" lon="11.1422441"><ele>116.0</ele><time>2026-04-27T15:53:37.732Z</time></trkpt><trkpt lat="43.6950228" lon="11.1422992"><ele>116.0</ele><time>2026-04-27T15:53:38.729Z</time></trkpt><trkpt lat="43.6950843" lon="11.1423641"><ele>115.99999999999999</ele><time>2026-04-27T15:53:39.73Z</time></trkpt><trkpt lat="43.6951442" lon="11.142419"><ele>116.0</ele><time>2026-04-27T15:53:40.735Z</time></trkpt><trkpt lat="43.6952361" lon="11.1425092"><ele>115.8</ele><time>2026-04-27T15:53:42.732Z</time></trkpt><trkpt lat="43.6953112" lon="11.142593"><ele>115.6</ele><time>2026-04-27T15:53:44.728Z</time></trkpt><trkpt lat="43.6953732" lon="11.142685"><ele>115.4</ele><time>2026-04-27T15:53:46.732Z</time></trkpt><trkpt lat="43.6954115" lon="11.142757"><ele>115.2</ele><time>2026-04-27T15:53:47.741Z</time></trkpt><trkpt lat="43.6954733" lon="11.1428983"><ele>115.0</ele><time>2026-04-27T15:53:49.73Z</time></trkpt><trkpt lat="43.6955457" lon="11.1430048"><ele>115.00000000000001</ele><time>2026-04-27T15:53:51.733Z</time></trkpt><trkpt lat="43.6956211" lon="11.1430974"><ele>115.0</ele><time>2026-04-27T15:53:53.734Z</time></trkpt><trkpt lat="43.695657" lon="11.1431862"><ele>115.0</ele><time>2026-04-27T15:53:55.729Z</time></trkpt><trkpt lat="43.6957079" lon="11.1432843"><ele>115.0</ele><time>2026-04-27T15:53:57.733Z</time></trkpt><trkpt lat="43.695771" lon="11.1433077"><ele>115.00000000000001</ele><time>2026-04-27T15:53:59.731Z</time></trkpt><trkpt lat="43.6958372" lon="11.1432934"><ele>115.0</ele><time>2026-04-27T15:54:01.732Z</time></trkpt><trkpt lat="43.6958968" lon="11.1432528"><ele>115.0</ele><time>2026-04-27T15:54:03.731Z</time></trkpt><trkpt lat="43.6959597" lon="11.1431817"><ele>115.0</ele><time>2026-04-27T15:54:05.742Z</time></trkpt><trkpt lat="43.6960212" lon="11.1431267"><ele>115.0</ele><time>2026-04-27T15:54:06.729Z</time></trkpt><trkpt lat="43.6960634" lon="11.1430251"><ele>115.0</ele><time>2026-04-27T15:54:08.736Z</time></trkpt><trkpt lat="43.6962153" lon="11.1430591"><ele>115.0</ele><time>2026-04-27T15:54:12.734Z</time></trkpt><trkpt lat="43.6963018" lon="11.1431709"><ele>114.4</ele><time>2026-04-27T15:54:14.729Z</time></trkpt><trkpt lat="43.6963637" lon="11.1431896"><ele>113.8</ele><time>2026-04-27T15:54:15.729Z</time></trkpt><trkpt lat="43.6964614" lon="11.1432381"><ele>113.19999999999999</ele><time>2026-04-27T15:54:17.73Z</time></trkpt><trkpt lat="43.696574" lon="11.1432523"><ele>112.6</ele><time>2026-04-27T15:54:19.737Z</time></trkpt><trkpt lat="43.6966564" lon="11.1432424"><ele>112.0</ele><time>2026-04-27T15:54:21.733Z</time></trkpt><trkpt lat="43.6967524" lon="11.1432061"><ele>112.33333333333334</ele><time>2026-04-27T15:54:25.732Z</time></trkpt><trkpt lat="43.6968212" lon="11.14315"><ele>112.66666666666667</ele><time>2026-04-27T15:54:28.732Z</time></trkpt><trkpt lat="43.6969105" lon="11.1430732"><ele>113.0</ele><time>2026-04-27T15:54:31.727Z</time></trkpt><trkpt lat="43.6969842" lon="11.1430491"><ele>113.33333333333334</ele><time>2026-04-27T15:54:33.738Z</time></trkpt><trkpt lat="43.6970522" lon="11.1430082"><ele>113.66666666666667</ele><time>2026-04-27T15:54:36.735Z</time></trkpt><trkpt lat="43.6971355" lon="11.142943"><ele>114.0</ele><time>2026-04-27T15:54:39.732Z</time></trkpt><trkpt lat="43.697202" lon="11.1428944"><ele>114.0</ele><time>2026-04-27T15:54:40.731Z</time></trkpt><trkpt lat="43.6972334" lon="11.1428008"><ele>114.0</ele><time>2026-04-27T15:54:43.733Z</time></trkpt><trkpt lat="43.6972154" lon="11.1427104"><ele>114.0</ele><time>2026-04-27T15:54:45.732Z</time></trkpt><trkpt lat="43.6972285" lon="11.1425962"><ele>114.0</ele><time>2026-04-27T15:54:49.732Z</time></trkpt><trkpt lat="43.6972453" lon="11.1424982"><ele>114.0</ele><time>2026-04-27T15:54:51.731Z</time></trkpt><trkpt lat="43.6972708" lon="11.1423763"><ele>114.0</ele><time>2026-04-27T15:54:53.728Z</time></trkpt><trkpt lat="43.6973095" lon="11.1422686"><ele>114.16666666666667</ele><time>2026-04-27T15:54:55.734Z</time></trkpt><trkpt lat="43.6973388" lon="11.1421619"><ele>114.33333333333334</ele><time>2026-04-27T15:54:57.731Z</time></trkpt><trkpt lat="43.6973638" lon="11.1420794"><ele>114.5</ele><time>2026-04-27T15:54:59.732Z</time></trkpt><trkpt lat="43.6974055" lon="11.1419405"><ele>114.66666666666667</ele><time>2026-04-27T15:55:01.742Z</time></trkpt><trkpt lat="43.6974559" lon="11.1418102"><ele>114.83333333333334</ele><time>2026-04-27T15:55:03.736Z</time></trkpt><trkpt lat="43.6975104" lon="11.1417335"><ele>115.0</ele><time>2026-04-27T15:55:05.736Z</time></trkpt><trkpt lat="43.6975867" lon="11.1416511"><ele>115.0</ele><time>2026-04-27T15:55:07.735Z</time></trkpt><trkpt lat="43.6976704" lon="11.1415618"><ele>115.0</ele><time>2026-04-27T15:55:09.743Z</time></trkpt><trkpt lat="43.6977511" lon="11.1414759"><ele>115.0</ele><time>2026-04-27T15:55:11.731Z</time></trkpt><trkpt lat="43.6978026" lon="11.1414219"><ele>115.0</ele><time>2026-04-27T15:55:12.733Z</time></trkpt><trkpt lat="43.697881" lon="11.1413225"><ele>115.0</ele><time>2026-04-27T15:55:14.733Z</time></trkpt><trkpt lat="43.6979426" lon="11.1412295"><ele>118.83333333333334</ele><time>2026-04-27T15:55:16.736Z</time></trkpt><trkpt lat="43.6980137" lon="11.1411142"><ele>122.66666666666667</ele><time>2026-04-27T15:55:18.736Z</time></trkpt><trkpt lat="43.6980486" lon="11.1410109"><ele>126.5</ele><time>2026-04-27T15:55:20.728Z</time></trkpt><trkpt lat="43.6980894" lon="11.1409207"><ele>130.33333333333334</ele><time>2026-04-27T15:55:23.731Z</time></trkpt><trkpt lat="43.698124" lon="11.140846"><ele>134.16666666666666</ele><time>2026-04-27T15:55:26.731Z</time></trkpt><trkpt lat="43.6981906" lon="11.1407735"><ele>138.0</ele><time>2026-04-27T15:55:31.729Z</time></trkpt><trkpt lat="43.6982792" lon="11.1407877"><ele>138.0</ele><time>2026-04-27T15:55:35.695Z</time></trkpt><trkpt lat="43.6983429" lon="11.1408101"><ele>138.0</ele><time>2026-04-27T15:55:37.732Z</time></trkpt><trkpt lat="43.698423" lon="11.1408726"><ele>138.0</ele><time>2026-04-27T15:55:40.736Z</time></trkpt><trkpt lat="43.6984755" lon="11.1409281"><ele>138.0</ele><time>2026-04-27T15:55:42.731Z</time></trkpt><trkpt lat="43.6985239" lon="11.1409965"><ele>138.0</ele><time>2026-04-27T15:55:44.73Z</time></trkpt><trkpt lat="43.6985586" lon="11.1410786"><ele>138.0</ele><time>2026-04-27T15:55:46.642Z</time></trkpt><trkpt lat="43.6985732" lon="11.1411642"><ele>138.0</ele><time>2026-04-27T15:55:48.729Z</time></trkpt><trkpt lat="43.6985226" lon="11.1412293"><ele>138.0</ele><time>2026-04-27T15:55:51.731Z</time></trkpt><trkpt lat="43.6984643" lon="11.1412752"><ele>138.0</ele><time>2026-04-27T15:55:54.734Z</time></trkpt><trkpt lat="43.6984094" lon="11.1413196"><ele>138.0</ele><time>2026-04-27T15:55:57.731Z</time></trkpt><trkpt lat="43.6983717" lon="11.1414104"><ele>138.0</ele><time>2026-04-27T15:56:01.727Z</time></trkpt><trkpt lat="43.6983417" lon="11.141498"><ele>138.0</ele><time>2026-04-27T15:56:04.634Z</time></trkpt><trkpt lat="43.6983035" lon="11.1415847"><ele>138.0</ele><time>2026-04-27T15:56:07.718Z</time></trkpt><trkpt lat="43.6982816" lon="11.1416745"><ele>138.0</ele><time>2026-04-27T15:56:09.732Z</time></trkpt><trkpt lat="43.6982644" lon="11.1417791"><ele>136.16666666666666</ele><time>2026-04-27T15:56:12.658Z</time></trkpt><trkpt lat="43.6982885" lon="11.1418699"><ele>134.33333333333334</ele><time>2026-04-27T15:56:16.719Z</time></trkpt><trkpt lat="43.6983009" lon="11.1419615"><ele>132.5</ele><time>2026-04-27T15:56:20.647Z</time></trkpt><trkpt lat="43.6982744" lon="11.142044"><ele>130.66666666666669</ele><time>2026-04-27T15:56:23.731Z</time></trkpt><trkpt lat="43.6981914" lon="11.1421109"><ele>128.83333333333334</ele><time>2026-04-27T15:56:26.732Z</time></trkpt><trkpt lat="43.6981319" lon="11.1421464"><ele>127.0</ele><time>2026-04-27T15:56:28.73Z</time></trkpt><trkpt lat="43.6980489" lon="11.1421947"><ele>127.00000000000001</ele><time>2026-04-27T15:56:32.729Z</time></trkpt><trkpt lat="43.6979936" lon="11.1422701"><ele>127.0</ele><time>2026-04-27T15:56:35.727Z</time></trkpt><trkpt lat="43.6979536" lon="11.1423574"><ele>127.0</ele><time>2026-04-27T15:56:39.73Z</time></trkpt><trkpt lat="43.6980438" lon="11.1424243"><ele>127.0</ele><time>2026-04-27T15:56:45.729Z</time></trkpt><trkpt lat="43.6981402" lon="11.1424303"><ele>127.00000000000001</ele><time>2026-04-27T15:56:47.74Z</time></trkpt><trkpt lat="43.6982209" lon="11.1423828"><ele>127.0</ele><time>2026-04-27T15:56:49.731Z</time></trkpt><trkpt lat="43.6983153" lon="11.1423448"><ele>127.0</ele><time>2026-04-27T15:56:51.733Z</time></trkpt><trkpt lat="43.6983948" lon="11.1423171"><ele>126.99999999999999</ele><time>2026-04-27T15:56:53.729Z</time></trkpt><trkpt lat="43.6985563" lon="11.142356"><ele>126.99999999999999</ele><time>2026-04-27T15:56:55.74Z</time></trkpt><trkpt lat="43.6986625" lon="11.1423947"><ele>127.0</ele><time>2026-04-27T15:56:56.731Z</time></trkpt><trkpt lat="43.698732" lon="11.1424213"><ele>127.0</ele><time>2026-04-27T15:56:57.728Z</time></trkpt><trkpt lat="43.6988006" lon="11.1424432"><ele>129.75</ele><time>2026-04-27T15:56:58.734Z</time></trkpt><trkpt lat="43.6988687" lon="11.1424608"><ele>132.5</ele><time>2026-04-27T15:56:59.732Z</time></trkpt><trkpt lat="43.6989345" lon="11.1424949"><ele>135.25</ele><time>2026-04-27T15:57:00.731Z</time></trkpt><trkpt lat="43.6991541" lon="11.1425304"><ele>138.0</ele><time>2026-04-27T15:57:05.737Z</time></trkpt><trkpt lat="43.6992479" lon="11.1425396"><ele>138.0</ele><time>2026-04-27T15:57:06.734Z</time></trkpt><trkpt lat="43.6993212" lon="11.1425622"><ele>138.0</ele><time>2026-04-27T15:57:07.734Z</time></trkpt><trkpt lat="43.6993961" lon="11.1425531"><ele>138.0</ele><time>2026-04-27T15:57:08.734Z</time></trkpt><trkpt lat="43.6994768" lon="11.1425579"><ele>138.0</ele><time>2026-04-27T15:57:09.735Z</time></trkpt><trkpt lat="43.6995546" lon="11.1425571"><ele>138.0</ele><time>2026-04-27T15:57:10.729Z</time></trkpt><trkpt lat="43.6996687" lon="11.1425165"><ele>138.0</ele><time>2026-04-27T15:57:12.733Z</time></trkpt><trkpt lat="43.6997184" lon="11.1424427"><ele>140.33333333333334</ele><time>2026-04-27T15:57:15.734Z</time></trkpt><trkpt lat="43.699736" lon="11.1423557"><ele>142.66666666666666</ele><time>2026-04-27T15:57:17.728Z</time></trkpt><trkpt lat="43.6997876" lon="11.1422465"><ele>145.0</ele><time>2026-04-27T15:57:19.729Z</time></trkpt><trkpt lat="43.6998228" lon="11.1421413"><ele>147.33333333333331</ele><time>2026-04-27T15:57:21.733Z</time></trkpt><trkpt lat="43.6998653" lon="11.1420536"><ele>149.66666666666666</ele><time>2026-04-27T15:57:39.732Z</time></trkpt><trkpt lat="43.6999405" lon="11.142073"><ele>152.0</ele><time>2026-04-27T15:57:44.732Z</time></trkpt><trkpt lat="43.7000172" lon="11.1421587"><ele>152.0</ele><time>2026-04-27T15:57:47.732Z</time></trkpt><trkpt lat="43.7000944" lon="11.1422335"><ele>152.0</ele><time>2026-04-27T15:57:49.729Z</time></trkpt><trkpt lat="43.7001846" lon="11.1423092"><ele>152.0</ele><time>2026-04-27T15:57:51.728Z</time></trkpt><trkpt lat="43.7002538" lon="11.1423976"><ele>152.0</ele><time>2026-04-27T15:57:53.729Z</time></trkpt><trkpt lat="43.7003455" lon="11.1424687"><ele>152.0</ele><time>2026-04-27T15:57:55.73Z</time></trkpt><trkpt lat="43.7004055" lon="11.1425089"><ele>154.0</ele><time>2026-04-27T15:57:56.736Z</time></trkpt><trkpt lat="43.7004749" lon="11.1425742"><ele>156.0</ele><time>2026-04-27T15:57:57.731Z</time></trkpt><trkpt lat="43.700535" lon="11.1426385"><ele>158.0</ele><time>2026-04-27T15:57:58.733Z</time></trkpt><trkpt lat="43.7006107" lon="11.1426735"><ele>160.0</ele><time>2026-04-27T15:57:59.732Z</time></trkpt><trkpt lat="43.7006562" lon="11.1427338"><ele>162.0</ele><time>2026-04-27T15:58:00.734Z</time></trkpt><trkpt lat="43.7007105" lon="11.1427835"><ele>164.0</ele><time>2026-04-27T15:58:01.728Z</time></trkpt><trkpt lat="43.7008271" lon="11.1428067"><ele>164.0</ele><time>2026-04-27T15:58:03.735Z</time></trkpt><trkpt lat="43.7008903" lon="11.1428216"><ele>164.0</ele><time>2026-04-27T15:58:04.73Z</time></trkpt><trkpt lat="43.7009512" lon="11.1428643"><ele>164.0</ele><time>2026-04-27T15:58:05.732Z</time></trkpt><trkpt lat="43.7010526" lon="11.142929"><ele>164.0</ele><time>2026-04-27T15:58:07.732Z</time></trkpt><trkpt lat="43.7011372" lon="11.1430121"><ele>164.0</ele><time>2026-04-27T15:58:09.736Z</time></trkpt><trkpt lat="43.701209" lon="11.1430958"><ele>164.0</ele><time>2026-04-27T15:58:11.729Z</time></trkpt><trkpt lat="43.7012921" lon="11.1432403"><ele>165.0</ele><time>2026-04-27T15:58:13.742Z</time></trkpt><trkpt lat="43.7013398" lon="11.1433198"><ele>166.0</ele><time>2026-04-27T15:58:14.735Z</time></trkpt><trkpt lat="43.7013969" lon="11.1433843"><ele>167.0</ele><time>2026-04-27T15:58:15.735Z</time></trkpt><trkpt lat="43.701461" lon="11.143459"><ele>168.0</ele><time>2026-04-27T15:58:16.73Z</time></trkpt><trkpt lat="43.701515" lon="11.1435195"><ele>169.0</ele><time>2026-04-27T15:58:17.734Z</time></trkpt><trkpt lat="43.7015685" lon="11.1436063"><ele>170.0</ele><time>2026-04-27T15:58:18.733Z</time></trkpt><trkpt lat="43.7016269" lon="11.1436891"><ele>170.0</ele><time>2026-04-27T15:58:19.733Z</time></trkpt><trkpt lat="43.7016997" lon="11.1437966"><ele>170.0</ele><time>2026-04-27T15:58:20.727Z</time></trkpt><trkpt lat="43.7017526" lon="11.1438744"><ele>170.0</ele><time>2026-04-27T15:58:21.734Z</time></trkpt><trkpt lat="43.7018225" lon="11.1439576"><ele>170.0</ele><time>2026-04-27T15:58:22.734Z</time></trkpt><trkpt lat="43.7018978" lon="11.1440179"><ele>170.0</ele><time>2026-04-27T15:58:23.729Z</time></trkpt><trkpt lat="43.7019684" lon="11.1440682"><ele>170.0</ele><time>2026-04-27T15:58:24.73Z</time></trkpt><trkpt lat="43.7020431" lon="11.1441396"><ele>171.2</ele><time>2026-04-27T15:58:25.728Z</time></trkpt><trkpt lat="43.7021039" lon="11.1441938"><ele>172.4</ele><time>2026-04-27T15:58:26.732Z</time></trkpt><trkpt lat="43.7021513" lon="11.144254"><ele>173.60000000000002</ele><time>2026-04-27T15:58:27.735Z</time></trkpt><trkpt lat="43.7022457" lon="11.1443881"><ele>174.8</ele><time>2026-04-27T15:58:29.729Z</time></trkpt><trkpt lat="43.7023049" lon="11.1444777"><ele>176.0</ele><time>2026-04-27T15:58:30.732Z</time></trkpt><trkpt lat="43.7023704" lon="11.1445763"><ele>176.0</ele><time>2026-04-27T15:58:31.732Z</time></trkpt><trkpt lat="43.7024315" lon="11.1446495"><ele>176.0</ele><time>2026-04-27T15:58:32.735Z</time></trkpt><trkpt lat="43.7025029" lon="11.1447292"><ele>176.0</ele><time>2026-04-27T15:58:33.733Z</time></trkpt><trkpt lat="43.7025673" lon="11.1447851"><ele>176.0</ele><time>2026-04-27T15:58:34.736Z</time></trkpt><trkpt lat="43.7026303" lon="11.144845"><ele>176.0</ele><time>2026-04-27T15:58:35.737Z</time></trkpt><trkpt lat="43.7027117" lon="11.1449229"><ele>176.0</ele><time>2026-04-27T15:58:36.731Z</time></trkpt><trkpt lat="43.7027857" lon="11.1449933"><ele>177.33333333333331</ele><time>2026-04-27T15:58:37.736Z</time></trkpt><trkpt lat="43.7028411" lon="11.14505"><ele>178.66666666666666</ele><time>2026-04-27T15:58:40.729Z</time></trkpt><trkpt lat="43.7029404" lon="11.1450123"><ele>180.0</ele><time>2026-04-27T15:58:50.734Z</time></trkpt><trkpt lat="43.7030368" lon="11.1450327"><ele>181.33333333333334</ele><time>2026-04-27T15:58:51.73Z</time></trkpt><trkpt lat="43.7030867" lon="11.145115"><ele>182.66666666666669</ele><time>2026-04-27T15:58:53.731Z</time></trkpt><trkpt lat="43.7031397" lon="11.1451692"><ele>184.0</ele><time>2026-04-27T15:58:54.732Z</time></trkpt><trkpt lat="43.7032148" lon="11.1452539"><ele>184.0</ele><time>2026-04-27T15:58:55.729Z</time></trkpt><trkpt lat="43.7032675" lon="11.1453501"><ele>184.0</ele><time>2026-04-27T15:58:57.731Z</time></trkpt><trkpt lat="43.7032881" lon="11.1454337"><ele>184.0</ele><time>2026-04-27T15:58:59.733Z</time></trkpt><trkpt lat="43.7033188" lon="11.1455174"><ele>184.0</ele><time>2026-04-27T15:59:01.73Z</time></trkpt><trkpt lat="43.7033804" lon="11.145601"><ele>184.0</ele><time>2026-04-27T15:59:03.736Z</time></trkpt><trkpt lat="43.7034493" lon="11.1456804"><ele>184.0</ele><time>2026-04-27T15:59:05.736Z</time></trkpt><trkpt lat="43.7035492" lon="11.1457456"><ele>184.6</ele><time>2026-04-27T15:59:07.729Z</time></trkpt><trkpt lat="43.7036579" lon="11.145853"><ele>185.2</ele><time>2026-04-27T15:59:09.732Z</time></trkpt><trkpt lat="43.7037406" lon="11.1459296"><ele>185.79999999999998</ele><time>2026-04-27T15:59:12.734Z</time></trkpt><trkpt lat="43.7038072" lon="11.1460136"><ele>186.39999999999998</ele><time>2026-04-27T15:59:14.733Z</time></trkpt><trkpt lat="43.7038713" lon="11.1460877"><ele>187.0</ele><time>2026-04-27T15:59:16.734Z</time></trkpt><trkpt lat="43.703884" lon="11.1462757"><ele>187.0</ele><time>2026-04-27T15:59:20.731Z</time></trkpt><trkpt lat="43.7038565" lon="11.1464062"><ele>187.0</ele><time>2026-04-27T15:59:23.73Z</time></trkpt><trkpt lat="43.7038771" lon="11.1465471"><ele>187.0</ele><time>2026-04-27T15:59:26.731Z</time></trkpt><trkpt lat="43.7039028" lon="11.1466409"><ele>187.0</ele><time>2026-04-27T15:59:28.73Z</time></trkpt><trkpt lat="43.7039333" lon="11.1467464"><ele>187.0</ele><time>2026-04-27T15:59:31.728Z</time></trkpt><trkpt lat="43.7039758" lon="11.1468201"><ele>187.0</ele><time>2026-04-27T15:59:34.73Z</time></trkpt><trkpt lat="43.7039866" lon="11.1469947"><ele>188.66666666666669</ele><time>2026-04-27T15:59:37.728Z</time></trkpt><trkpt lat="43.704031" lon="11.1470924"><ele>190.33333333333334</ele><time>2026-04-27T15:59:39.732Z</time></trkpt><trkpt lat="43.7040713" lon="11.1471663"><ele>192.0</ele><time>2026-04-27T15:59:41.732Z</time></trkpt><trkpt lat="43.7040874" lon="11.1472647"><ele>193.66666666666669</ele><time>2026-04-27T15:59:44.73Z</time></trkpt><trkpt lat="43.7041157" lon="11.1473507"><ele>195.33333333333334</ele><time>2026-04-27T15:59:46.728Z</time></trkpt><trkpt lat="43.7041532" lon="11.1474286"><ele>197.0</ele><time>2026-04-27T15:59:50.731Z</time></trkpt><trkpt lat="43.7043132" lon="11.1475218"><ele>198.33333333333334</ele><time>2026-04-27T15:59:54.727Z</time></trkpt><trkpt lat="43.704382" lon="11.1475888"><ele>199.66666666666669</ele><time>2026-04-27T15:59:55.73Z</time></trkpt><trkpt lat="43.7044402" lon="11.1476819"><ele>201.0</ele><time>2026-04-27T15:59:57.731Z</time></trkpt><trkpt lat="43.7045144" lon="11.1477581"><ele>202.33333333333331</ele><time>2026-04-27T15:59:59.73Z</time></trkpt><trkpt lat="43.7045976" lon="11.1477799"><ele>203.66666666666666</ele><time>2026-04-27T16:00:01.729Z</time></trkpt><trkpt lat="43.7046666" lon="11.1478264"><ele>205.0</ele><time>2026-04-27T16:00:04.732Z</time></trkpt><trkpt lat="43.7047287" lon="11.147573"><ele>205.0</ele><time>2026-04-27T16:00:10.731Z</time></trkpt><trkpt lat="43.7047894" lon="11.1474119"><ele>205.0</ele><time>2026-04-27T16:00:12.729Z</time></trkpt><trkpt lat="43.7047802" lon="11.1473021"><ele>205.0</ele><time>2026-04-27T16:00:13.735Z</time></trkpt><trkpt lat="43.7047925" lon="11.147212"><ele>205.0</ele><time>2026-04-27T16:00:14.733Z</time></trkpt><trkpt lat="43.7048252" lon="11.1471349"><ele>205.0</ele><time>2026-04-27T16:00:15.73Z</time></trkpt><trkpt lat="43.704847" lon="11.1469743"><ele>205.0</ele><time>2026-04-27T16:00:16.734Z</time></trkpt><trkpt lat="43.7048096" lon="11.1467516"><ele>205.0</ele><time>2026-04-27T16:00:17.734Z</time></trkpt><trkpt lat="43.7047941" lon="11.146633"><ele>205.0</ele><time>2026-04-27T16:00:18.735Z</time></trkpt><trkpt lat="43.7047618" lon="11.1465338"><ele>205.0</ele><time>2026-04-27T16:00:21.733Z</time></trkpt><trkpt lat="43.7047577" lon="11.1464375"><ele>205.0</ele><time>2026-04-27T16:00:23.728Z</time></trkpt><trkpt lat="43.7047148" lon="11.1463546"><ele>202.83333333333331</ele><time>2026-04-27T16:00:25.735Z</time></trkpt><trkpt lat="43.7046783" lon="11.1462479"><ele>200.66666666666666</ele><time>2026-04-27T16:00:28.73Z</time></trkpt><trkpt lat="43.7046682" lon="11.1461297"><ele>198.5</ele><time>2026-04-27T16:00:31.731Z</time></trkpt><trkpt lat="43.7046864" lon="11.1460368"><ele>196.33333333333331</ele><time>2026-04-27T16:00:33.728Z</time></trkpt><trkpt lat="43.7046971" lon="11.1459204"><ele>194.16666666666666</ele><time>2026-04-27T16:00:35.729Z</time></trkpt><trkpt lat="43.7046767" lon="11.1458232"><ele>192.0</ele><time>2026-04-27T16:00:38.729Z</time></trkpt><trkpt lat="43.7046541" lon="11.1457384"><ele>191.0</ele><time>2026-04-27T16:00:41.727Z</time></trkpt><trkpt lat="43.7045983" lon="11.1456459"><ele>190.0</ele><time>2026-04-27T16:00:44.731Z</time></trkpt><trkpt lat="43.704516" lon="11.1455452"><ele>189.0</ele><time>2026-04-27T16:00:46.734Z</time></trkpt><trkpt lat="43.7045005" lon="11.1454187"><ele>188.0</ele><time>2026-04-27T16:00:47.728Z</time></trkpt><trkpt lat="43.704424" lon="11.145282"><ele>187.0</ele><time>2026-04-27T16:00:50.732Z</time></trkpt><trkpt lat="43.7043709" lon="11.1451677"><ele>185.66666666666669</ele><time>2026-04-27T16:00:52.729Z</time></trkpt><trkpt lat="43.7043871" lon="11.1450623"><ele>184.33333333333334</ele><time>2026-04-27T16:00:54.729Z</time></trkpt><trkpt lat="43.7043329" lon="11.1449822"><ele>183.0</ele><time>2026-04-27T16:00:56.736Z</time></trkpt><trkpt lat="43.7042673" lon="11.1449088"><ele>181.66666666666666</ele><time>2026-04-27T16:00:58.728Z</time></trkpt><trkpt lat="43.7042074" lon="11.1448422"><ele>180.33333333333331</ele><time>2026-04-27T16:01:00.731Z</time></trkpt><trkpt lat="43.7041644" lon="11.1447762"><ele>179.0</ele><time>2026-04-27T16:01:05.728Z</time></trkpt><trkpt lat="43.7040932" lon="11.1447205"><ele>179.0</ele><time>2026-04-27T16:01:08.73Z</time></trkpt><trkpt lat="43.7040288" lon="11.1446908"><ele>179.0</ele><time>2026-04-27T16:01:11.731Z</time></trkpt><trkpt lat="43.7039802" lon="11.1447601"><ele>179.0</ele><time>2026-04-27T16:01:33.733Z</time></trkpt><trkpt lat="43.7039076" lon="11.1447462"><ele>179.0</ele><time>2026-04-27T16:01:37.727Z</time></trkpt><trkpt lat="43.7038601" lon="11.1446861"><ele>179.0</ele><time>2026-04-27T16:01:40.727Z</time></trkpt><trkpt lat="43.7034335" lon="11.1411123"><ele>178.6</ele><time>2026-04-27T16:04:14.731Z</time></trkpt><trkpt lat="43.7034998" lon="11.141031"><ele>178.2</ele><time>2026-04-27T16:04:15.731Z</time></trkpt><trkpt lat="43.7036146" lon="11.140894"><ele>177.79999999999998</ele><time>2026-04-27T16:04:17.73Z</time></trkpt><trkpt lat="43.7036884" lon="11.1407914"><ele>177.39999999999998</ele><time>2026-04-27T16:04:19.729Z</time></trkpt><trkpt lat="43.7037719" lon="11.1407106"><ele>177.0</ele><time>2026-04-27T16:04:21.729Z</time></trkpt><trkpt lat="43.7038277" lon="11.1406493"><ele>177.0</ele><time>2026-04-27T16:04:23.729Z</time></trkpt><trkpt lat="43.7038893" lon="11.1406149"><ele>177.0</ele><time>2026-04-27T16:04:33.73Z</time></trkpt><trkpt lat="43.7039641" lon="11.1406039"><ele>177.0</ele><time>2026-04-27T16:04:37.729Z</time></trkpt></trkseg></trk></gpx>